<?xml version="1.0" encoding="UTF-8" standalone="no" ?>
<gpx xmlns="http://www.topografix.com/GPX/1/1" xmlns:xsi="http://www.w3.org/2001/XMLSchema-instance" xsi:schemaLocation="http://www.topografix.com/GPX/1/1 http://www.topografix.com/GPX/1/1/gpx.xsd" version="1.1" creator="VisuGPX - https://www.visugpx.com">
  <metadata>
    <name>Cassis: la calanque de Port Miou</name>
    <desc><![CDATA[Cassis: la calanque de Port Miou]]></desc>
  </metadata>
  <trk>
    <name><![CDATA[2016-04-22 17:26:16]]></name>
    <trkseg>
      <trkpt lat="43.20699" lon="5.51916">
        <ele>29.94</ele>
        <time>2016-04-22T13:06:16Z</time>
      </trkpt>
      <trkpt lat="43.20702" lon="5.51917">
        <ele>29.94</ele>
        <time>2016-04-22T13:06:44Z</time>
      </trkpt>
      <trkpt lat="43.20703" lon="5.51917">
        <ele>30.9</ele>
        <time>2016-04-22T13:07:10Z</time>
      </trkpt>
      <trkpt lat="43.20701" lon="5.51917">
        <ele>30.9</ele>
        <time>2016-04-22T13:07:35Z</time>
      </trkpt>
      <trkpt lat="43.20701" lon="5.51915">
        <ele>31.38</ele>
        <time>2016-04-22T13:07:49Z</time>
      </trkpt>
      <trkpt lat="43.20713" lon="5.51914">
        <ele>30.42</ele>
        <time>2016-04-22T13:08:03Z</time>
      </trkpt>
      <trkpt lat="43.20721" lon="5.51912">
        <ele>29.94</ele>
        <time>2016-04-22T13:08:15Z</time>
      </trkpt>
      <trkpt lat="43.20732" lon="5.51916">
        <ele>28.5</ele>
        <time>2016-04-22T13:08:26Z</time>
      </trkpt>
      <trkpt lat="43.20734" lon="5.51918">
        <ele>26.57</ele>
        <time>2016-04-22T13:08:43Z</time>
      </trkpt>
      <trkpt lat="43.20746" lon="5.5192">
        <ele>26.57</ele>
        <time>2016-04-22T13:08:56Z</time>
      </trkpt>
      <trkpt lat="43.20749" lon="5.51919">
        <ele>26.57</ele>
        <time>2016-04-22T13:08:59Z</time>
      </trkpt>
      <trkpt lat="43.20751" lon="5.5191">
        <ele>27.53</ele>
        <time>2016-04-22T13:09:13Z</time>
      </trkpt>
      <trkpt lat="43.20756" lon="5.51905">
        <ele>26.09</ele>
        <time>2016-04-22T13:09:38Z</time>
      </trkpt>
      <trkpt lat="43.20753" lon="5.51909">
        <ele>27.05</ele>
        <time>2016-04-22T13:09:53Z</time>
      </trkpt>
      <trkpt lat="43.20752" lon="5.51912">
        <ele>28.98</ele>
        <time>2016-04-22T13:10:11Z</time>
      </trkpt>
      <trkpt lat="43.20751" lon="5.51913">
        <ele>27.53</ele>
        <time>2016-04-22T13:10:29Z</time>
      </trkpt>
      <trkpt lat="43.20751" lon="5.51916">
        <ele>27.53</ele>
        <time>2016-04-22T13:10:50Z</time>
      </trkpt>
      <trkpt lat="43.20753" lon="5.51915">
        <ele>28.5</ele>
        <time>2016-04-22T13:11:12Z</time>
      </trkpt>
      <trkpt lat="43.20754" lon="5.51926">
        <ele>28.98</ele>
        <time>2016-04-22T13:11:19Z</time>
      </trkpt>
      <trkpt lat="43.20765" lon="5.51941">
        <ele>28.5</ele>
        <time>2016-04-22T13:11:34Z</time>
      </trkpt>
      <trkpt lat="43.20774" lon="5.51954">
        <ele>28.5</ele>
        <time>2016-04-22T13:11:48Z</time>
      </trkpt>
      <trkpt lat="43.20787" lon="5.51964">
        <ele>28.98</ele>
        <time>2016-04-22T13:12:03Z</time>
      </trkpt>
      <trkpt lat="43.20794" lon="5.51969">
        <ele>28.98</ele>
        <time>2016-04-22T13:12:11Z</time>
      </trkpt>
      <trkpt lat="43.20787" lon="5.51967">
        <ele>30.9</ele>
        <time>2016-04-22T13:12:28Z</time>
      </trkpt>
      <trkpt lat="43.20788" lon="5.51963">
        <ele>31.38</ele>
        <time>2016-04-22T13:12:51Z</time>
      </trkpt>
      <trkpt lat="43.20787" lon="5.51966">
        <ele>30.9</ele>
        <time>2016-04-22T13:13:19Z</time>
      </trkpt>
      <trkpt lat="43.20785" lon="5.51966">
        <ele>25.61</ele>
        <time>2016-04-22T13:13:45Z</time>
      </trkpt>
      <trkpt lat="43.20788" lon="5.51968">
        <ele>25.13</ele>
        <time>2016-04-22T13:13:57Z</time>
      </trkpt>
      <trkpt lat="43.20792" lon="5.51967">
        <ele>26.57</ele>
        <time>2016-04-22T13:14:01Z</time>
      </trkpt>
      <trkpt lat="43.20799" lon="5.51975">
        <ele>28.02</ele>
        <time>2016-04-22T13:14:11Z</time>
      </trkpt>
      <trkpt lat="43.20803" lon="5.51982">
        <ele>28.02</ele>
        <time>2016-04-22T13:14:20Z</time>
      </trkpt>
      <trkpt lat="43.20805" lon="5.51987">
        <ele>28.5</ele>
        <time>2016-04-22T13:14:24Z</time>
      </trkpt>
      <trkpt lat="43.20819" lon="5.52007">
        <ele>30.9</ele>
        <time>2016-04-22T13:14:42Z</time>
      </trkpt>
      <trkpt lat="43.20833" lon="5.52022">
        <ele>33.78</ele>
        <time>2016-04-22T13:14:58Z</time>
      </trkpt>
      <trkpt lat="43.20837" lon="5.52026">
        <ele>34.26</ele>
        <time>2016-04-22T13:15:03Z</time>
      </trkpt>
      <trkpt lat="43.2084" lon="5.52031">
        <ele>35.23</ele>
        <time>2016-04-22T13:15:07Z</time>
      </trkpt>
      <trkpt lat="43.20846" lon="5.52044">
        <ele>39.55</ele>
        <time>2016-04-22T13:15:21Z</time>
      </trkpt>
      <trkpt lat="43.20856" lon="5.52059">
        <ele>41.95</ele>
        <time>2016-04-22T13:15:37Z</time>
      </trkpt>
      <trkpt lat="43.20869" lon="5.52072">
        <ele>44.36</ele>
        <time>2016-04-22T13:15:52Z</time>
      </trkpt>
      <trkpt lat="43.2088" lon="5.52086">
        <ele>45.8</ele>
        <time>2016-04-22T13:16:07Z</time>
      </trkpt>
      <trkpt lat="43.20894" lon="5.52097">
        <ele>49.65</ele>
        <time>2016-04-22T13:16:24Z</time>
      </trkpt>
      <trkpt lat="43.20906" lon="5.52105">
        <ele>52.53</ele>
        <time>2016-04-22T13:16:38Z</time>
      </trkpt>
      <trkpt lat="43.20921" lon="5.52111">
        <ele>55.41</ele>
        <time>2016-04-22T13:16:55Z</time>
      </trkpt>
      <trkpt lat="43.20939" lon="5.5212">
        <ele>55.41</ele>
        <time>2016-04-22T13:17:13Z</time>
      </trkpt>
      <trkpt lat="43.20952" lon="5.52139">
        <ele>53.49</ele>
        <time>2016-04-22T13:17:31Z</time>
      </trkpt>
      <trkpt lat="43.20967" lon="5.52157">
        <ele>54.45</ele>
        <time>2016-04-22T13:17:49Z</time>
      </trkpt>
      <trkpt lat="43.20977" lon="5.52175">
        <ele>53.97</ele>
        <time>2016-04-22T13:18:05Z</time>
      </trkpt>
      <trkpt lat="43.2098" lon="5.52179">
        <ele>53.97</ele>
        <time>2016-04-22T13:18:10Z</time>
      </trkpt>
      <trkpt lat="43.20987" lon="5.52196">
        <ele>52.05</ele>
        <time>2016-04-22T13:18:26Z</time>
      </trkpt>
      <trkpt lat="43.20989" lon="5.52201">
        <ele>51.57</ele>
        <time>2016-04-22T13:18:30Z</time>
      </trkpt>
      <trkpt lat="43.21002" lon="5.52225">
        <ele>50.61</ele>
        <time>2016-04-22T13:18:46Z</time>
      </trkpt>
      <trkpt lat="43.21008" lon="5.52232">
        <ele>52.05</ele>
        <time>2016-04-22T13:18:58Z</time>
      </trkpt>
      <trkpt lat="43.21018" lon="5.52254">
        <ele>51.57</ele>
        <time>2016-04-22T13:19:15Z</time>
      </trkpt>
      <trkpt lat="43.21024" lon="5.52271">
        <ele>51.57</ele>
        <time>2016-04-22T13:19:29Z</time>
      </trkpt>
      <trkpt lat="43.21034" lon="5.52279">
        <ele>52.53</ele>
        <time>2016-04-22T13:19:43Z</time>
      </trkpt>
      <trkpt lat="43.21051" lon="5.52291">
        <ele>52.53</ele>
        <time>2016-04-22T13:20:00Z</time>
      </trkpt>
      <trkpt lat="43.21065" lon="5.52293">
        <ele>52.05</ele>
        <time>2016-04-22T13:20:16Z</time>
      </trkpt>
      <trkpt lat="43.21067" lon="5.52293">
        <ele>51.57</ele>
        <time>2016-04-22T13:20:19Z</time>
      </trkpt>
      <trkpt lat="43.21079" lon="5.52298">
        <ele>52.05</ele>
        <time>2016-04-22T13:20:36Z</time>
      </trkpt>
      <trkpt lat="43.2108" lon="5.52301">
        <ele>50.61</ele>
        <time>2016-04-22T13:20:40Z</time>
      </trkpt>
      <trkpt lat="43.21089" lon="5.52313">
        <ele>46.76</ele>
        <time>2016-04-22T13:20:56Z</time>
      </trkpt>
      <trkpt lat="43.21097" lon="5.52304">
        <ele>46.76</ele>
        <time>2016-04-22T13:21:12Z</time>
      </trkpt>
      <trkpt lat="43.21103" lon="5.52292">
        <ele>44.84</ele>
        <time>2016-04-22T13:21:27Z</time>
      </trkpt>
      <trkpt lat="43.21105" lon="5.52282">
        <ele>43.4</ele>
        <time>2016-04-22T13:21:41Z</time>
      </trkpt>
      <trkpt lat="43.21108" lon="5.52279">
        <ele>41.95</ele>
        <time>2016-04-22T13:21:53Z</time>
      </trkpt>
      <trkpt lat="43.21114" lon="5.52274">
        <ele>40.51</ele>
        <time>2016-04-22T13:22:07Z</time>
      </trkpt>
      <trkpt lat="43.21118" lon="5.52274">
        <ele>39.55</ele>
        <time>2016-04-22T13:22:23Z</time>
      </trkpt>
      <trkpt lat="43.21123" lon="5.5227">
        <ele>39.07</ele>
        <time>2016-04-22T13:22:39Z</time>
      </trkpt>
      <trkpt lat="43.21127" lon="5.52264">
        <ele>37.63</ele>
        <time>2016-04-22T13:22:51Z</time>
      </trkpt>
      <trkpt lat="43.21129" lon="5.52261">
        <ele>37.15</ele>
        <time>2016-04-22T13:23:02Z</time>
      </trkpt>
      <trkpt lat="43.21132" lon="5.52256">
        <ele>34.74</ele>
        <time>2016-04-22T13:23:16Z</time>
      </trkpt>
      <trkpt lat="43.21139" lon="5.52258">
        <ele>31.86</ele>
        <time>2016-04-22T13:23:29Z</time>
      </trkpt>
      <trkpt lat="43.21143" lon="5.52252">
        <ele>30.42</ele>
        <time>2016-04-22T13:23:37Z</time>
      </trkpt>
      <trkpt lat="43.21146" lon="5.5223">
        <ele>28.02</ele>
        <time>2016-04-22T13:23:53Z</time>
      </trkpt>
      <trkpt lat="43.21151" lon="5.52206">
        <ele>24.65</ele>
        <time>2016-04-22T13:24:10Z</time>
      </trkpt>
      <trkpt lat="43.21153" lon="5.52202">
        <ele>27.53</ele>
        <time>2016-04-22T13:24:25Z</time>
      </trkpt>
      <trkpt lat="43.21154" lon="5.52203">
        <ele>27.05</ele>
        <time>2016-04-22T13:24:31Z</time>
      </trkpt>
      <trkpt lat="43.21169" lon="5.52209">
        <ele>23.69</ele>
        <time>2016-04-22T13:24:47Z</time>
      </trkpt>
      <trkpt lat="43.2118" lon="5.52216">
        <ele>22.25</ele>
        <time>2016-04-22T13:25:01Z</time>
      </trkpt>
      <trkpt lat="43.21184" lon="5.52218">
        <ele>22.73</ele>
        <time>2016-04-22T13:25:06Z</time>
      </trkpt>
      <trkpt lat="43.21198" lon="5.52218">
        <ele>25.13</ele>
        <time>2016-04-22T13:25:20Z</time>
      </trkpt>
      <trkpt lat="43.21203" lon="5.52207">
        <ele>24.65</ele>
        <time>2016-04-22T13:25:33Z</time>
      </trkpt>
      <trkpt lat="43.21201" lon="5.52207">
        <ele>25.61</ele>
        <time>2016-04-22T13:25:49Z</time>
      </trkpt>
      <trkpt lat="43.21197" lon="5.52204">
        <ele>28.02</ele>
        <time>2016-04-22T13:26:10Z</time>
      </trkpt>
      <trkpt lat="43.21196" lon="5.52196">
        <ele>29.46</ele>
        <time>2016-04-22T13:26:17Z</time>
      </trkpt>
      <trkpt lat="43.21187" lon="5.52174">
        <ele>28.02</ele>
        <time>2016-04-22T13:26:32Z</time>
      </trkpt>
      <trkpt lat="43.21178" lon="5.52153">
        <ele>24.65</ele>
        <time>2016-04-22T13:26:45Z</time>
      </trkpt>
      <trkpt lat="43.21176" lon="5.52149">
        <ele>23.69</ele>
        <time>2016-04-22T13:26:48Z</time>
      </trkpt>
      <trkpt lat="43.21168" lon="5.52131">
        <ele>20.81</ele>
        <time>2016-04-22T13:27:00Z</time>
      </trkpt>
      <trkpt lat="43.21165" lon="5.52123">
        <ele>20.32</ele>
        <time>2016-04-22T13:27:05Z</time>
      </trkpt>
      <trkpt lat="43.21165" lon="5.5212">
        <ele>20.32</ele>
        <time>2016-04-22T13:27:07Z</time>
      </trkpt>
      <trkpt lat="43.21163" lon="5.52114">
        <ele>19.84</ele>
        <time>2016-04-22T13:27:12Z</time>
      </trkpt>
      <trkpt lat="43.21152" lon="5.521">
        <ele>21.29</ele>
        <time>2016-04-22T13:27:26Z</time>
      </trkpt>
      <trkpt lat="43.21145" lon="5.52098">
        <ele>20.32</ele>
        <time>2016-04-22T13:27:31Z</time>
      </trkpt>
      <trkpt lat="43.21142" lon="5.52094">
        <ele>20.32</ele>
        <time>2016-04-22T13:27:35Z</time>
      </trkpt>
      <trkpt lat="43.21139" lon="5.52091">
        <ele>19.84</ele>
        <time>2016-04-22T13:27:38Z</time>
      </trkpt>
      <trkpt lat="43.21121" lon="5.52075">
        <ele>16.96</ele>
        <time>2016-04-22T13:27:56Z</time>
      </trkpt>
      <trkpt lat="43.21107" lon="5.52061">
        <ele>16.96</ele>
        <time>2016-04-22T13:28:12Z</time>
      </trkpt>
      <trkpt lat="43.21095" lon="5.52048">
        <ele>16.96</ele>
        <time>2016-04-22T13:28:27Z</time>
      </trkpt>
      <trkpt lat="43.21084" lon="5.52038">
        <ele>15.52</ele>
        <time>2016-04-22T13:28:39Z</time>
      </trkpt>
      <trkpt lat="43.2108" lon="5.52034">
        <ele>15.52</ele>
        <time>2016-04-22T13:28:43Z</time>
      </trkpt>
      <trkpt lat="43.21074" lon="5.52027">
        <ele>16</ele>
        <time>2016-04-22T13:28:50Z</time>
      </trkpt>
      <trkpt lat="43.21057" lon="5.52009">
        <ele>16</ele>
        <time>2016-04-22T13:29:08Z</time>
      </trkpt>
      <trkpt lat="43.21056" lon="5.52007">
        <ele>16</ele>
        <time>2016-04-22T13:29:10Z</time>
      </trkpt>
      <trkpt lat="43.21052" lon="5.52002">
        <ele>16.48</ele>
        <time>2016-04-22T13:29:15Z</time>
      </trkpt>
      <trkpt lat="43.2105" lon="5.51996">
        <ele>16.48</ele>
        <time>2016-04-22T13:29:20Z</time>
      </trkpt>
      <trkpt lat="43.21033" lon="5.51984">
        <ele>15.52</ele>
        <time>2016-04-22T13:29:36Z</time>
      </trkpt>
      <trkpt lat="43.21021" lon="5.51969">
        <ele>15.52</ele>
        <time>2016-04-22T13:29:51Z</time>
      </trkpt>
      <trkpt lat="43.21017" lon="5.51962">
        <ele>15.04</ele>
        <time>2016-04-22T13:29:57Z</time>
      </trkpt>
      <trkpt lat="43.21004" lon="5.51951">
        <ele>18.4</ele>
        <time>2016-04-22T13:30:12Z</time>
      </trkpt>
      <trkpt lat="43.20995" lon="5.51937">
        <ele>19.84</ele>
        <time>2016-04-22T13:30:25Z</time>
      </trkpt>
      <trkpt lat="43.20992" lon="5.51933">
        <ele>19.84</ele>
        <time>2016-04-22T13:30:29Z</time>
      </trkpt>
      <trkpt lat="43.20985" lon="5.51918">
        <ele>21.77</ele>
        <time>2016-04-22T13:30:41Z</time>
      </trkpt>
      <trkpt lat="43.20984" lon="5.51913">
        <ele>21.29</ele>
        <time>2016-04-22T13:30:44Z</time>
      </trkpt>
      <trkpt lat="43.20972" lon="5.51896">
        <ele>20.32</ele>
        <time>2016-04-22T13:31:01Z</time>
      </trkpt>
      <trkpt lat="43.20955" lon="5.5188">
        <ele>18.4</ele>
        <time>2016-04-22T13:31:17Z</time>
      </trkpt>
      <trkpt lat="43.20942" lon="5.51864">
        <ele>16.96</ele>
        <time>2016-04-22T13:31:33Z</time>
      </trkpt>
      <trkpt lat="43.20928" lon="5.51845">
        <ele>15.52</ele>
        <time>2016-04-22T13:31:52Z</time>
      </trkpt>
      <trkpt lat="43.20917" lon="5.51827">
        <ele>15.04</ele>
        <time>2016-04-22T13:32:09Z</time>
      </trkpt>
      <trkpt lat="43.20915" lon="5.51823">
        <ele>14.56</ele>
        <time>2016-04-22T13:32:12Z</time>
      </trkpt>
      <trkpt lat="43.20908" lon="5.51809">
        <ele>13.12</ele>
        <time>2016-04-22T13:32:24Z</time>
      </trkpt>
      <trkpt lat="43.209" lon="5.51794">
        <ele>13.12</ele>
        <time>2016-04-22T13:32:36Z</time>
      </trkpt>
      <trkpt lat="43.20894" lon="5.5177">
        <ele>13.6</ele>
        <time>2016-04-22T13:32:54Z</time>
      </trkpt>
      <trkpt lat="43.20893" lon="5.51767">
        <ele>12.15</ele>
        <time>2016-04-22T13:33:14Z</time>
      </trkpt>
      <trkpt lat="43.2089" lon="5.51764">
        <ele>11.67</ele>
        <time>2016-04-22T13:33:25Z</time>
      </trkpt>
      <trkpt lat="43.20887" lon="5.51761">
        <ele>12.63</ele>
        <time>2016-04-22T13:33:29Z</time>
      </trkpt>
      <trkpt lat="43.20877" lon="5.51743">
        <ele>12.63</ele>
        <time>2016-04-22T13:33:44Z</time>
      </trkpt>
      <trkpt lat="43.20865" lon="5.51725">
        <ele>12.15</ele>
        <time>2016-04-22T13:33:58Z</time>
      </trkpt>
      <trkpt lat="43.20857" lon="5.51715">
        <ele>11.19</ele>
        <time>2016-04-22T13:34:07Z</time>
      </trkpt>
      <trkpt lat="43.20849" lon="5.51697">
        <ele>11.67</ele>
        <time>2016-04-22T13:34:23Z</time>
      </trkpt>
      <trkpt lat="43.20845" lon="5.51689">
        <ele>14.08</ele>
        <time>2016-04-22T13:34:38Z</time>
      </trkpt>
      <trkpt lat="43.2084" lon="5.51678">
        <ele>14.56</ele>
        <time>2016-04-22T13:34:47Z</time>
      </trkpt>
      <trkpt lat="43.20828" lon="5.51659">
        <ele>15.04</ele>
        <time>2016-04-22T13:35:04Z</time>
      </trkpt>
      <trkpt lat="43.20815" lon="5.5164">
        <ele>16</ele>
        <time>2016-04-22T13:35:22Z</time>
      </trkpt>
      <trkpt lat="43.20803" lon="5.51616">
        <ele>16.48</ele>
        <time>2016-04-22T13:35:42Z</time>
      </trkpt>
      <trkpt lat="43.20794" lon="5.516">
        <ele>16.96</ele>
        <time>2016-04-22T13:35:57Z</time>
      </trkpt>
      <trkpt lat="43.20786" lon="5.51583">
        <ele>17.44</ele>
        <time>2016-04-22T13:36:10Z</time>
      </trkpt>
      <trkpt lat="43.2078" lon="5.51578">
        <ele>16.48</ele>
        <time>2016-04-22T13:36:16Z</time>
      </trkpt>
      <trkpt lat="43.20772" lon="5.51566">
        <ele>19.36</ele>
        <time>2016-04-22T13:36:29Z</time>
      </trkpt>
      <trkpt lat="43.20761" lon="5.51547">
        <ele>20.32</ele>
        <time>2016-04-22T13:36:46Z</time>
      </trkpt>
      <trkpt lat="43.20759" lon="5.51545">
        <ele>20.32</ele>
        <time>2016-04-22T13:36:48Z</time>
      </trkpt>
      <trkpt lat="43.20748" lon="5.51526">
        <ele>17.44</ele>
        <time>2016-04-22T13:37:04Z</time>
      </trkpt>
      <trkpt lat="43.20741" lon="5.51508">
        <ele>15.52</ele>
        <time>2016-04-22T13:37:19Z</time>
      </trkpt>
      <trkpt lat="43.20732" lon="5.51494">
        <ele>17.44</ele>
        <time>2016-04-22T13:37:34Z</time>
      </trkpt>
      <trkpt lat="43.20726" lon="5.51487">
        <ele>21.29</ele>
        <time>2016-04-22T13:37:47Z</time>
      </trkpt>
      <trkpt lat="43.20716" lon="5.5148">
        <ele>26.57</ele>
        <time>2016-04-22T13:38:02Z</time>
      </trkpt>
      <trkpt lat="43.20706" lon="5.51477">
        <ele>27.05</ele>
        <time>2016-04-22T13:38:21Z</time>
      </trkpt>
      <trkpt lat="43.207" lon="5.51475">
        <ele>24.65</ele>
        <time>2016-04-22T13:38:40Z</time>
      </trkpt>
      <trkpt lat="43.20686" lon="5.51471">
        <ele>26.09</ele>
        <time>2016-04-22T13:38:56Z</time>
      </trkpt>
      <trkpt lat="43.20674" lon="5.51469">
        <ele>28.02</ele>
        <time>2016-04-22T13:39:12Z</time>
      </trkpt>
      <trkpt lat="43.20665" lon="5.51467">
        <ele>30.9</ele>
        <time>2016-04-22T13:39:28Z</time>
      </trkpt>
      <trkpt lat="43.2066" lon="5.51465">
        <ele>26.09</ele>
        <time>2016-04-22T13:39:56Z</time>
      </trkpt>
      <trkpt lat="43.20663" lon="5.51468">
        <ele>25.61</ele>
        <time>2016-04-22T13:40:31Z</time>
      </trkpt>
      <trkpt lat="43.20662" lon="5.51469">
        <ele>26.09</ele>
        <time>2016-04-22T13:41:01Z</time>
      </trkpt>
      <trkpt lat="43.20663" lon="5.51464">
        <ele>26.57</ele>
        <time>2016-04-22T13:41:31Z</time>
      </trkpt>
      <trkpt lat="43.20659" lon="5.51464">
        <ele>29.46</ele>
        <time>2016-04-22T13:41:48Z</time>
      </trkpt>
      <trkpt lat="43.20652" lon="5.51462">
        <ele>31.38</ele>
        <time>2016-04-22T13:42:05Z</time>
      </trkpt>
      <trkpt lat="43.20647" lon="5.5146">
        <ele>32.82</ele>
        <time>2016-04-22T13:42:20Z</time>
      </trkpt>
      <trkpt lat="43.20642" lon="5.51455">
        <ele>33.3</ele>
        <time>2016-04-22T13:42:37Z</time>
      </trkpt>
      <trkpt lat="43.20635" lon="5.51447">
        <ele>36.19</ele>
        <time>2016-04-22T13:42:49Z</time>
      </trkpt>
      <trkpt lat="43.20624" lon="5.51434">
        <ele>40.51</ele>
        <time>2016-04-22T13:43:06Z</time>
      </trkpt>
      <trkpt lat="43.20615" lon="5.51421">
        <ele>41.47</ele>
        <time>2016-04-22T13:43:22Z</time>
      </trkpt>
      <trkpt lat="43.2061" lon="5.51414">
        <ele>42.92</ele>
        <time>2016-04-22T13:43:36Z</time>
      </trkpt>
      <trkpt lat="43.20609" lon="5.51414">
        <ele>42.44</ele>
        <time>2016-04-22T13:43:41Z</time>
      </trkpt>
      <trkpt lat="43.20604" lon="5.5141">
        <ele>41.47</ele>
        <time>2016-04-22T13:43:48Z</time>
      </trkpt>
      <trkpt lat="43.20595" lon="5.51399">
        <ele>41.47</ele>
        <time>2016-04-22T13:44:00Z</time>
      </trkpt>
      <trkpt lat="43.20592" lon="5.51391">
        <ele>41.95</ele>
        <time>2016-04-22T13:44:18Z</time>
      </trkpt>
      <trkpt lat="43.20589" lon="5.51388">
        <ele>42.92</ele>
        <time>2016-04-22T13:44:43Z</time>
      </trkpt>
      <trkpt lat="43.20589" lon="5.51387">
        <ele>43.4</ele>
        <time>2016-04-22T13:45:16Z</time>
      </trkpt>
      <trkpt lat="43.2059" lon="5.51385">
        <ele>43.4</ele>
        <time>2016-04-22T13:45:43Z</time>
      </trkpt>
      <trkpt lat="43.20589" lon="5.51381">
        <ele>44.84</ele>
        <time>2016-04-22T13:45:57Z</time>
      </trkpt>
      <trkpt lat="43.20583" lon="5.51364">
        <ele>47.72</ele>
        <time>2016-04-22T13:46:13Z</time>
      </trkpt>
      <trkpt lat="43.20584" lon="5.51347">
        <ele>48.68</ele>
        <time>2016-04-22T13:46:28Z</time>
      </trkpt>
      <trkpt lat="43.20587" lon="5.51342">
        <ele>49.16</ele>
        <time>2016-04-22T13:46:33Z</time>
      </trkpt>
      <trkpt lat="43.20598" lon="5.51331">
        <ele>51.09</ele>
        <time>2016-04-22T13:46:49Z</time>
      </trkpt>
      <trkpt lat="43.2061" lon="5.51322">
        <ele>52.05</ele>
        <time>2016-04-22T13:47:04Z</time>
      </trkpt>
      <trkpt lat="43.20624" lon="5.51315">
        <ele>54.45</ele>
        <time>2016-04-22T13:47:21Z</time>
      </trkpt>
      <trkpt lat="43.20625" lon="5.51316">
        <ele>54.93</ele>
        <time>2016-04-22T13:47:23Z</time>
      </trkpt>
      <trkpt lat="43.2063" lon="5.51318">
        <ele>56.37</ele>
        <time>2016-04-22T13:47:33Z</time>
      </trkpt>
      <trkpt lat="43.20641" lon="5.51326">
        <ele>56.37</ele>
        <time>2016-04-22T13:47:48Z</time>
      </trkpt>
      <trkpt lat="43.2065" lon="5.5133">
        <ele>57.34</ele>
        <time>2016-04-22T13:48:01Z</time>
      </trkpt>
      <trkpt lat="43.20661" lon="5.51338">
        <ele>58.3</ele>
        <time>2016-04-22T13:48:16Z</time>
      </trkpt>
      <trkpt lat="43.20662" lon="5.51339">
        <ele>58.3</ele>
        <time>2016-04-22T13:48:17Z</time>
      </trkpt>
      <trkpt lat="43.20674" lon="5.51347">
        <ele>59.74</ele>
        <time>2016-04-22T13:48:33Z</time>
      </trkpt>
      <trkpt lat="43.20685" lon="5.51352">
        <ele>62.14</ele>
        <time>2016-04-22T13:48:48Z</time>
      </trkpt>
      <trkpt lat="43.20698" lon="5.51361">
        <ele>63.1</ele>
        <time>2016-04-22T13:49:05Z</time>
      </trkpt>
      <trkpt lat="43.2071" lon="5.51369">
        <ele>63.58</ele>
        <time>2016-04-22T13:49:20Z</time>
      </trkpt>
      <trkpt lat="43.20722" lon="5.51376">
        <ele>66.47</ele>
        <time>2016-04-22T13:49:35Z</time>
      </trkpt>
      <trkpt lat="43.20736" lon="5.51382">
        <ele>67.43</ele>
        <time>2016-04-22T13:49:51Z</time>
      </trkpt>
      <trkpt lat="43.20746" lon="5.51391">
        <ele>66.95</ele>
        <time>2016-04-22T13:50:06Z</time>
      </trkpt>
      <trkpt lat="43.20749" lon="5.51394">
        <ele>66.47</ele>
        <time>2016-04-22T13:50:19Z</time>
      </trkpt>
      <trkpt lat="43.20754" lon="5.51403">
        <ele>65.51</ele>
        <time>2016-04-22T13:50:34Z</time>
      </trkpt>
      <trkpt lat="43.2076" lon="5.51409">
        <ele>64.07</ele>
        <time>2016-04-22T13:50:41Z</time>
      </trkpt>
      <trkpt lat="43.20766" lon="5.51416">
        <ele>65.51</ele>
        <time>2016-04-22T13:50:49Z</time>
      </trkpt>
      <trkpt lat="43.20783" lon="5.51431">
        <ele>66.95</ele>
        <time>2016-04-22T13:51:08Z</time>
      </trkpt>
      <trkpt lat="43.20794" lon="5.5144">
        <ele>68.87</ele>
        <time>2016-04-22T13:51:21Z</time>
      </trkpt>
      <trkpt lat="43.2081" lon="5.51448">
        <ele>69.83</ele>
        <time>2016-04-22T13:51:39Z</time>
      </trkpt>
      <trkpt lat="43.20824" lon="5.51457">
        <ele>71.27</ele>
        <time>2016-04-22T13:51:55Z</time>
      </trkpt>
      <trkpt lat="43.20838" lon="5.51465">
        <ele>72.72</ele>
        <time>2016-04-22T13:52:12Z</time>
      </trkpt>
      <trkpt lat="43.20854" lon="5.51476">
        <ele>73.68</ele>
        <time>2016-04-22T13:52:30Z</time>
      </trkpt>
      <trkpt lat="43.20859" lon="5.51479">
        <ele>74.16</ele>
        <time>2016-04-22T13:52:36Z</time>
      </trkpt>
      <trkpt lat="43.20872" lon="5.51489">
        <ele>75.12</ele>
        <time>2016-04-22T13:52:52Z</time>
      </trkpt>
      <trkpt lat="43.20878" lon="5.51493">
        <ele>75.6</ele>
        <time>2016-04-22T13:53:00Z</time>
      </trkpt>
      <trkpt lat="43.20893" lon="5.51503">
        <ele>77.52</ele>
        <time>2016-04-22T13:53:17Z</time>
      </trkpt>
      <trkpt lat="43.20905" lon="5.51509">
        <ele>79.93</ele>
        <time>2016-04-22T13:53:31Z</time>
      </trkpt>
      <trkpt lat="43.20918" lon="5.51518">
        <ele>79.45</ele>
        <time>2016-04-22T13:53:46Z</time>
      </trkpt>
      <trkpt lat="43.2092" lon="5.51517">
        <ele>78.97</ele>
        <time>2016-04-22T13:54:04Z</time>
      </trkpt>
      <trkpt lat="43.20919" lon="5.5152">
        <ele>77.52</ele>
        <time>2016-04-22T13:54:18Z</time>
      </trkpt>
      <trkpt lat="43.20927" lon="5.51525">
        <ele>77.52</ele>
        <time>2016-04-22T13:54:40Z</time>
      </trkpt>
      <trkpt lat="43.20942" lon="5.51538">
        <ele>79.45</ele>
        <time>2016-04-22T13:54:57Z</time>
      </trkpt>
      <trkpt lat="43.2096" lon="5.51552">
        <ele>80.41</ele>
        <time>2016-04-22T13:55:16Z</time>
      </trkpt>
      <trkpt lat="43.20978" lon="5.51561">
        <ele>80.89</ele>
        <time>2016-04-22T13:55:33Z</time>
      </trkpt>
      <trkpt lat="43.20996" lon="5.51567">
        <ele>81.85</ele>
        <time>2016-04-22T13:55:51Z</time>
      </trkpt>
      <trkpt lat="43.21016" lon="5.51575">
        <ele>81.37</ele>
        <time>2016-04-22T13:56:10Z</time>
      </trkpt>
      <trkpt lat="43.21036" lon="5.51583">
        <ele>80.89</ele>
        <time>2016-04-22T13:56:28Z</time>
      </trkpt>
      <trkpt lat="43.21054" lon="5.5159">
        <ele>80.41</ele>
        <time>2016-04-22T13:56:47Z</time>
      </trkpt>
      <trkpt lat="43.21059" lon="5.51592">
        <ele>79.93</ele>
        <time>2016-04-22T13:56:51Z</time>
      </trkpt>
      <trkpt lat="43.21063" lon="5.51595">
        <ele>79.93</ele>
        <time>2016-04-22T13:56:57Z</time>
      </trkpt>
      <trkpt lat="43.21069" lon="5.51604">
        <ele>78.48</ele>
        <time>2016-04-22T13:57:11Z</time>
      </trkpt>
      <trkpt lat="43.21069" lon="5.51606">
        <ele>78.48</ele>
        <time>2016-04-22T13:57:12Z</time>
      </trkpt>
      <trkpt lat="43.21072" lon="5.51606">
        <ele>78</ele>
        <time>2016-04-22T13:57:26Z</time>
      </trkpt>
      <trkpt lat="43.21069" lon="5.51609">
        <ele>78.48</ele>
        <time>2016-04-22T13:57:42Z</time>
      </trkpt>
      <trkpt lat="43.2107" lon="5.51605">
        <ele>78</ele>
        <time>2016-04-22T13:57:56Z</time>
      </trkpt>
      <trkpt lat="43.2107" lon="5.51605">
        <ele>78</ele>
        <time>2016-04-22T13:58:07Z</time>
      </trkpt>
      <trkpt lat="43.2107" lon="5.51607">
        <ele>78</ele>
        <time>2016-04-22T13:58:26Z</time>
      </trkpt>
      <trkpt lat="43.2107" lon="5.51608">
        <ele>77.04</ele>
        <time>2016-04-22T13:58:48Z</time>
      </trkpt>
      <trkpt lat="43.2107" lon="5.51608">
        <ele>77.04</ele>
        <time>2016-04-22T13:59:04Z</time>
      </trkpt>
      <trkpt lat="43.21074" lon="5.51617">
        <ele>76.56</ele>
        <time>2016-04-22T13:59:19Z</time>
      </trkpt>
      <trkpt lat="43.21072" lon="5.51624">
        <ele>77.04</ele>
        <time>2016-04-22T13:59:33Z</time>
      </trkpt>
      <trkpt lat="43.21071" lon="5.51623">
        <ele>77.04</ele>
        <time>2016-04-22T13:59:53Z</time>
      </trkpt>
      <trkpt lat="43.21072" lon="5.51624">
        <ele>78.48</ele>
        <time>2016-04-22T14:00:03Z</time>
      </trkpt>
      <trkpt lat="43.21071" lon="5.51625">
        <ele>78.48</ele>
        <time>2016-04-22T14:00:18Z</time>
      </trkpt>
      <trkpt lat="43.21072" lon="5.51622">
        <ele>78</ele>
        <time>2016-04-22T14:00:29Z</time>
      </trkpt>
      <trkpt lat="43.21075" lon="5.51617">
        <ele>78</ele>
        <time>2016-04-22T14:00:43Z</time>
      </trkpt>
      <trkpt lat="43.21078" lon="5.51616">
        <ele>78.48</ele>
        <time>2016-04-22T14:01:05Z</time>
      </trkpt>
      <trkpt lat="43.21078" lon="5.51612">
        <ele>78</ele>
        <time>2016-04-22T14:01:09Z</time>
      </trkpt>
      <trkpt lat="43.21077" lon="5.51608">
        <ele>78</ele>
        <time>2016-04-22T14:01:12Z</time>
      </trkpt>
      <trkpt lat="43.21073" lon="5.516">
        <ele>77.52</ele>
        <time>2016-04-22T14:01:32Z</time>
      </trkpt>
      <trkpt lat="43.21072" lon="5.51598">
        <ele>76.08</ele>
        <time>2016-04-22T14:01:49Z</time>
      </trkpt>
      <trkpt lat="43.21073" lon="5.51598">
        <ele>78.48</ele>
        <time>2016-04-22T14:02:28Z</time>
      </trkpt>
      <trkpt lat="43.21071" lon="5.51599">
        <ele>78.48</ele>
        <time>2016-04-22T14:02:44Z</time>
      </trkpt>
      <trkpt lat="43.21072" lon="5.51601">
        <ele>78.97</ele>
        <time>2016-04-22T14:03:17Z</time>
      </trkpt>
      <trkpt lat="43.21072" lon="5.51605">
        <ele>78.97</ele>
        <time>2016-04-22T14:03:20Z</time>
      </trkpt>
      <trkpt lat="43.21078" lon="5.5162">
        <ele>77.52</ele>
        <time>2016-04-22T14:03:38Z</time>
      </trkpt>
      <trkpt lat="43.21078" lon="5.51618">
        <ele>77.04</ele>
        <time>2016-04-22T14:04:10Z</time>
      </trkpt>
      <trkpt lat="43.21077" lon="5.51617">
        <ele>75.12</ele>
        <time>2016-04-22T14:04:40Z</time>
      </trkpt>
      <trkpt lat="43.21077" lon="5.51617">
        <ele>74.16</ele>
        <time>2016-04-22T14:05:19Z</time>
      </trkpt>
      <trkpt lat="43.21077" lon="5.5162">
        <ele>75.6</ele>
        <time>2016-04-22T14:05:42Z</time>
      </trkpt>
      <trkpt lat="43.2108" lon="5.51622">
        <ele>77.04</ele>
        <time>2016-04-22T14:06:05Z</time>
      </trkpt>
      <trkpt lat="43.21092" lon="5.51637">
        <ele>78.48</ele>
        <time>2016-04-22T14:06:21Z</time>
      </trkpt>
      <trkpt lat="43.21105" lon="5.51655">
        <ele>79.93</ele>
        <time>2016-04-22T14:06:39Z</time>
      </trkpt>
      <trkpt lat="43.21118" lon="5.51671">
        <ele>81.37</ele>
        <time>2016-04-22T14:06:57Z</time>
      </trkpt>
      <trkpt lat="43.21128" lon="5.51687">
        <ele>82.81</ele>
        <time>2016-04-22T14:07:13Z</time>
      </trkpt>
      <trkpt lat="43.2114" lon="5.51705">
        <ele>85.21</ele>
        <time>2016-04-22T14:07:31Z</time>
      </trkpt>
      <trkpt lat="43.21153" lon="5.51719">
        <ele>90.02</ele>
        <time>2016-04-22T14:07:48Z</time>
      </trkpt>
      <trkpt lat="43.21162" lon="5.51727">
        <ele>91.94</ele>
        <time>2016-04-22T14:08:04Z</time>
      </trkpt>
      <trkpt lat="43.21173" lon="5.51738">
        <ele>94.83</ele>
        <time>2016-04-22T14:08:20Z</time>
      </trkpt>
      <trkpt lat="43.21185" lon="5.51745">
        <ele>99.15</ele>
        <time>2016-04-22T14:08:37Z</time>
      </trkpt>
      <trkpt lat="43.212" lon="5.51748">
        <ele>102.04</ele>
        <time>2016-04-22T14:08:55Z</time>
      </trkpt>
      <trkpt lat="43.2121" lon="5.51749">
        <ele>103</ele>
        <time>2016-04-22T14:09:11Z</time>
      </trkpt>
      <trkpt lat="43.2121" lon="5.51749">
        <ele>101.08</ele>
        <time>2016-04-22T14:09:41Z</time>
      </trkpt>
      <trkpt lat="43.21218" lon="5.51752">
        <ele>102.04</ele>
        <time>2016-04-22T14:10:00Z</time>
      </trkpt>
      <trkpt lat="43.21222" lon="5.51753">
        <ele>103.48</ele>
        <time>2016-04-22T14:10:05Z</time>
      </trkpt>
      <trkpt lat="43.21234" lon="5.51757">
        <ele>105.88</ele>
        <time>2016-04-22T14:10:22Z</time>
      </trkpt>
      <trkpt lat="43.21245" lon="5.5176">
        <ele>107.81</ele>
        <time>2016-04-22T14:10:37Z</time>
      </trkpt>
      <trkpt lat="43.21251" lon="5.51763">
        <ele>108.77</ele>
        <time>2016-04-22T14:10:51Z</time>
      </trkpt>
      <trkpt lat="43.21265" lon="5.51773">
        <ele>110.69</ele>
        <time>2016-04-22T14:11:07Z</time>
      </trkpt>
      <trkpt lat="43.21273" lon="5.51784">
        <ele>111.65</ele>
        <time>2016-04-22T14:11:25Z</time>
      </trkpt>
      <trkpt lat="43.21274" lon="5.51786">
        <ele>111.65</ele>
        <time>2016-04-22T14:11:28Z</time>
      </trkpt>
      <trkpt lat="43.2128" lon="5.51791">
        <ele>112.13</ele>
        <time>2016-04-22T14:11:35Z</time>
      </trkpt>
      <trkpt lat="43.21291" lon="5.51806">
        <ele>112.61</ele>
        <time>2016-04-22T14:11:52Z</time>
      </trkpt>
      <trkpt lat="43.21306" lon="5.51826">
        <ele>112.61</ele>
        <time>2016-04-22T14:12:11Z</time>
      </trkpt>
      <trkpt lat="43.21316" lon="5.51841">
        <ele>113.09</ele>
        <time>2016-04-22T14:12:26Z</time>
      </trkpt>
      <trkpt lat="43.21327" lon="5.5186">
        <ele>115.01</ele>
        <time>2016-04-22T14:12:43Z</time>
      </trkpt>
      <trkpt lat="43.21335" lon="5.51875">
        <ele>115.98</ele>
        <time>2016-04-22T14:12:58Z</time>
      </trkpt>
      <trkpt lat="43.21344" lon="5.51887">
        <ele>117.42</ele>
        <time>2016-04-22T14:13:13Z</time>
      </trkpt>
      <trkpt lat="43.21351" lon="5.51882">
        <ele>118.86</ele>
        <time>2016-04-22T14:13:26Z</time>
      </trkpt>
      <trkpt lat="43.21352" lon="5.51873">
        <ele>119.34</ele>
        <time>2016-04-22T14:13:34Z</time>
      </trkpt>
      <trkpt lat="43.21354" lon="5.51853">
        <ele>120.3</ele>
        <time>2016-04-22T14:13:50Z</time>
      </trkpt>
      <trkpt lat="43.21356" lon="5.51837">
        <ele>121.74</ele>
        <time>2016-04-22T14:14:04Z</time>
      </trkpt>
      <trkpt lat="43.21359" lon="5.51814">
        <ele>122.71</ele>
        <time>2016-04-22T14:14:21Z</time>
      </trkpt>
      <trkpt lat="43.2136" lon="5.51801">
        <ele>123.19</ele>
        <time>2016-04-22T14:14:32Z</time>
      </trkpt>
      <trkpt lat="43.21369" lon="5.51787">
        <ele>125.59</ele>
        <time>2016-04-22T14:14:47Z</time>
      </trkpt>
      <trkpt lat="43.2137" lon="5.51786">
        <ele>124.15</ele>
        <time>2016-04-22T14:15:05Z</time>
      </trkpt>
      <trkpt lat="43.21371" lon="5.51785">
        <ele>123.67</ele>
        <time>2016-04-22T14:15:37Z</time>
      </trkpt>
      <trkpt lat="43.21372" lon="5.51784">
        <ele>123.67</ele>
        <time>2016-04-22T14:15:58Z</time>
      </trkpt>
      <trkpt lat="43.21375" lon="5.51779">
        <ele>126.07</ele>
        <time>2016-04-22T14:16:17Z</time>
      </trkpt>
      <trkpt lat="43.21385" lon="5.51768">
        <ele>128.47</ele>
        <time>2016-04-22T14:16:32Z</time>
      </trkpt>
      <trkpt lat="43.21399" lon="5.51759">
        <ele>130.88</ele>
        <time>2016-04-22T14:16:49Z</time>
      </trkpt>
      <trkpt lat="43.21405" lon="5.5176">
        <ele>131.36</ele>
        <time>2016-04-22T14:17:04Z</time>
      </trkpt>
      <trkpt lat="43.21406" lon="5.51759">
        <ele>129.92</ele>
        <time>2016-04-22T14:17:17Z</time>
      </trkpt>
      <trkpt lat="43.21406" lon="5.51759">
        <ele>129.43</ele>
        <time>2016-04-22T14:17:18Z</time>
      </trkpt>
      <trkpt lat="43.21402" lon="5.51759">
        <ele>128.95</ele>
        <time>2016-04-22T14:17:34Z</time>
      </trkpt>
      <trkpt lat="43.21402" lon="5.51759">
        <ele>130.4</ele>
        <time>2016-04-22T14:18:07Z</time>
      </trkpt>
      <trkpt lat="43.21401" lon="5.51757">
        <ele>130.4</ele>
        <time>2016-04-22T14:18:30Z</time>
      </trkpt>
      <trkpt lat="43.21402" lon="5.51757">
        <ele>132.8</ele>
        <time>2016-04-22T14:18:53Z</time>
      </trkpt>
      <trkpt lat="43.21403" lon="5.51756">
        <ele>133.28</ele>
        <time>2016-04-22T14:19:16Z</time>
      </trkpt>
      <trkpt lat="43.21404" lon="5.51759">
        <ele>134.24</ele>
        <time>2016-04-22T14:19:51Z</time>
      </trkpt>
      <trkpt lat="43.21412" lon="5.5176">
        <ele>133.76</ele>
        <time>2016-04-22T14:20:01Z</time>
      </trkpt>
      <trkpt lat="43.21431" lon="5.51766">
        <ele>133.28</ele>
        <time>2016-04-22T14:20:20Z</time>
      </trkpt>
      <trkpt lat="43.21446" lon="5.5177">
        <ele>133.28</ele>
        <time>2016-04-22T14:20:36Z</time>
      </trkpt>
      <trkpt lat="43.21461" lon="5.51775">
        <ele>132.8</ele>
        <time>2016-04-22T14:20:53Z</time>
      </trkpt>
      <trkpt lat="43.21478" lon="5.5178">
        <ele>132.8</ele>
        <time>2016-04-22T14:21:11Z</time>
      </trkpt>
      <trkpt lat="43.21491" lon="5.51784">
        <ele>132.32</ele>
        <time>2016-04-22T14:21:27Z</time>
      </trkpt>
      <trkpt lat="43.21494" lon="5.51783">
        <ele>132.8</ele>
        <time>2016-04-22T14:21:45Z</time>
      </trkpt>
      <trkpt lat="43.21505" lon="5.51787">
        <ele>131.36</ele>
        <time>2016-04-22T14:22:10Z</time>
      </trkpt>
      <trkpt lat="43.21521" lon="5.51793">
        <ele>131.84</ele>
        <time>2016-04-22T14:22:27Z</time>
      </trkpt>
      <trkpt lat="43.21537" lon="5.51796">
        <ele>133.76</ele>
        <time>2016-04-22T14:22:44Z</time>
      </trkpt>
      <trkpt lat="43.21551" lon="5.51799">
        <ele>134.72</ele>
        <time>2016-04-22T14:23:00Z</time>
      </trkpt>
      <trkpt lat="43.21555" lon="5.51799">
        <ele>135.2</ele>
        <time>2016-04-22T14:23:03Z</time>
      </trkpt>
      <trkpt lat="43.21557" lon="5.51799">
        <ele>134.72</ele>
        <time>2016-04-22T14:23:05Z</time>
      </trkpt>
      <trkpt lat="43.21563" lon="5.51797">
        <ele>133.76</ele>
        <time>2016-04-22T14:23:11Z</time>
      </trkpt>
      <trkpt lat="43.21564" lon="5.51797">
        <ele>132.32</ele>
        <time>2016-04-22T14:23:22Z</time>
      </trkpt>
      <trkpt lat="43.21563" lon="5.51795">
        <ele>129.92</ele>
        <time>2016-04-22T14:23:40Z</time>
      </trkpt>
      <trkpt lat="43.2157" lon="5.5179">
        <ele>131.84</ele>
        <time>2016-04-22T14:23:52Z</time>
      </trkpt>
      <trkpt lat="43.21569" lon="5.5179">
        <ele>132.8</ele>
        <time>2016-04-22T14:24:01Z</time>
      </trkpt>
      <trkpt lat="43.21569" lon="5.51791">
        <ele>132.8</ele>
        <time>2016-04-22T14:24:20Z</time>
      </trkpt>
      <trkpt lat="43.2157" lon="5.5179">
        <ele>131.84</ele>
        <time>2016-04-22T14:24:49Z</time>
      </trkpt>
      <trkpt lat="43.2157" lon="5.5179">
        <ele>133.28</ele>
        <time>2016-04-22T14:25:12Z</time>
      </trkpt>
      <trkpt lat="43.2157" lon="5.5179">
        <ele>132.32</ele>
        <time>2016-04-22T14:25:26Z</time>
      </trkpt>
      <trkpt lat="43.21569" lon="5.51791">
        <ele>132.8</ele>
        <time>2016-04-22T14:25:44Z</time>
      </trkpt>
      <trkpt lat="43.21569" lon="5.51791">
        <ele>133.28</ele>
        <time>2016-04-22T14:26:06Z</time>
      </trkpt>
      <trkpt lat="43.21568" lon="5.51791">
        <ele>134.72</ele>
        <time>2016-04-22T14:26:26Z</time>
      </trkpt>
      <trkpt lat="43.21569" lon="5.51782">
        <ele>133.76</ele>
        <time>2016-04-22T14:26:49Z</time>
      </trkpt>
      <trkpt lat="43.21569" lon="5.51782">
        <ele>133.76</ele>
        <time>2016-04-22T14:27:09Z</time>
      </trkpt>
      <trkpt lat="43.2157" lon="5.51781">
        <ele>131.36</ele>
        <time>2016-04-22T14:27:31Z</time>
      </trkpt>
      <trkpt lat="43.21569" lon="5.51782">
        <ele>133.76</ele>
        <time>2016-04-22T14:27:59Z</time>
      </trkpt>
      <trkpt lat="43.21568" lon="5.51781">
        <ele>132.8</ele>
        <time>2016-04-22T14:28:26Z</time>
      </trkpt>
      <trkpt lat="43.21569" lon="5.51782">
        <ele>133.28</ele>
        <time>2016-04-22T14:28:55Z</time>
      </trkpt>
      <trkpt lat="43.21569" lon="5.51782">
        <ele>133.28</ele>
        <time>2016-04-22T14:29:14Z</time>
      </trkpt>
      <trkpt lat="43.21566" lon="5.51776">
        <ele>133.76</ele>
        <time>2016-04-22T14:29:30Z</time>
      </trkpt>
      <trkpt lat="43.21564" lon="5.51769">
        <ele>132.8</ele>
        <time>2016-04-22T14:29:39Z</time>
      </trkpt>
      <trkpt lat="43.2156" lon="5.51758">
        <ele>132.32</ele>
        <time>2016-04-22T14:29:49Z</time>
      </trkpt>
      <trkpt lat="43.21559" lon="5.51756">
        <ele>132.32</ele>
        <time>2016-04-22T14:29:50Z</time>
      </trkpt>
      <trkpt lat="43.21555" lon="5.51738">
        <ele>130.4</ele>
        <time>2016-04-22T14:30:02Z</time>
      </trkpt>
      <trkpt lat="43.21554" lon="5.51738">
        <ele>131.36</ele>
        <time>2016-04-22T14:30:16Z</time>
      </trkpt>
      <trkpt lat="43.21554" lon="5.51737">
        <ele>132.8</ele>
        <time>2016-04-22T14:30:30Z</time>
      </trkpt>
      <trkpt lat="43.21552" lon="5.51736">
        <ele>133.28</ele>
        <time>2016-04-22T14:30:36Z</time>
      </trkpt>
      <trkpt lat="43.21551" lon="5.51744">
        <ele>131.84</ele>
        <time>2016-04-22T14:30:47Z</time>
      </trkpt>
      <trkpt lat="43.21551" lon="5.51745">
        <ele>131.84</ele>
        <time>2016-04-22T14:30:48Z</time>
      </trkpt>
      <trkpt lat="43.2155" lon="5.51752">
        <ele>127.99</ele>
        <time>2016-04-22T14:31:01Z</time>
      </trkpt>
      <trkpt lat="43.21542" lon="5.5176">
        <ele>126.07</ele>
        <time>2016-04-22T14:31:14Z</time>
      </trkpt>
      <trkpt lat="43.21541" lon="5.51763">
        <ele>126.07</ele>
        <time>2016-04-22T14:31:17Z</time>
      </trkpt>
      <trkpt lat="43.21534" lon="5.51774">
        <ele>125.11</ele>
        <time>2016-04-22T14:31:28Z</time>
      </trkpt>
      <trkpt lat="43.21521" lon="5.51777">
        <ele>125.59</ele>
        <time>2016-04-22T14:31:43Z</time>
      </trkpt>
      <trkpt lat="43.21517" lon="5.51781">
        <ele>125.59</ele>
        <time>2016-04-22T14:32:05Z</time>
      </trkpt>
      <trkpt lat="43.21509" lon="5.51787">
        <ele>126.07</ele>
        <time>2016-04-22T14:32:14Z</time>
      </trkpt>
      <trkpt lat="43.21505" lon="5.51787">
        <ele>126.07</ele>
        <time>2016-04-22T14:32:18Z</time>
      </trkpt>
      <trkpt lat="43.21501" lon="5.51787">
        <ele>126.07</ele>
        <time>2016-04-22T14:32:21Z</time>
      </trkpt>
      <trkpt lat="43.21498" lon="5.51785">
        <ele>125.11</ele>
        <time>2016-04-22T14:32:24Z</time>
      </trkpt>
      <trkpt lat="43.21496" lon="5.51783">
        <ele>125.11</ele>
        <time>2016-04-22T14:32:25Z</time>
      </trkpt>
      <trkpt lat="43.21494" lon="5.51782">
        <ele>125.11</ele>
        <time>2016-04-22T14:32:26Z</time>
      </trkpt>
      <trkpt lat="43.21493" lon="5.51782">
        <ele>124.63</ele>
        <time>2016-04-22T14:32:27Z</time>
      </trkpt>
      <trkpt lat="43.21492" lon="5.51782">
        <ele>124.63</ele>
        <time>2016-04-22T14:32:28Z</time>
      </trkpt>
      <trkpt lat="43.21489" lon="5.51782">
        <ele>125.11</ele>
        <time>2016-04-22T14:32:31Z</time>
      </trkpt>
      <trkpt lat="43.21479" lon="5.51779">
        <ele>126.07</ele>
        <time>2016-04-22T14:32:38Z</time>
      </trkpt>
      <trkpt lat="43.21479" lon="5.5178">
        <ele>126.07</ele>
        <time>2016-04-22T14:32:39Z</time>
      </trkpt>
      <trkpt lat="43.21477" lon="5.51781">
        <ele>126.07</ele>
        <time>2016-04-22T14:32:41Z</time>
      </trkpt>
      <trkpt lat="43.21476" lon="5.51781">
        <ele>126.55</ele>
        <time>2016-04-22T14:32:42Z</time>
      </trkpt>
      <trkpt lat="43.21476" lon="5.5178">
        <ele>127.03</ele>
        <time>2016-04-22T14:32:43Z</time>
      </trkpt>
      <trkpt lat="43.21468" lon="5.51777">
        <ele>128.95</ele>
        <time>2016-04-22T14:32:53Z</time>
      </trkpt>
      <trkpt lat="43.21467" lon="5.51777">
        <ele>128.95</ele>
        <time>2016-04-22T14:32:54Z</time>
      </trkpt>
      <trkpt lat="43.21463" lon="5.51776">
        <ele>129.43</ele>
        <time>2016-04-22T14:32:57Z</time>
      </trkpt>
      <trkpt lat="43.2145" lon="5.51769">
        <ele>129.43</ele>
        <time>2016-04-22T14:33:08Z</time>
      </trkpt>
      <trkpt lat="43.2144" lon="5.51766">
        <ele>127.03</ele>
        <time>2016-04-22T14:33:17Z</time>
      </trkpt>
      <trkpt lat="43.21434" lon="5.51767">
        <ele>125.59</ele>
        <time>2016-04-22T14:33:24Z</time>
      </trkpt>
      <trkpt lat="43.21433" lon="5.51766">
        <ele>126.07</ele>
        <time>2016-04-22T14:33:25Z</time>
      </trkpt>
      <trkpt lat="43.21432" lon="5.51765">
        <ele>126.07</ele>
        <time>2016-04-22T14:33:26Z</time>
      </trkpt>
      <trkpt lat="43.21423" lon="5.51762">
        <ele>126.55</ele>
        <time>2016-04-22T14:33:34Z</time>
      </trkpt>
      <trkpt lat="43.21422" lon="5.51761">
        <ele>126.55</ele>
        <time>2016-04-22T14:33:35Z</time>
      </trkpt>
      <trkpt lat="43.2142" lon="5.5176">
        <ele>126.07</ele>
        <time>2016-04-22T14:33:36Z</time>
      </trkpt>
      <trkpt lat="43.21419" lon="5.5176">
        <ele>126.07</ele>
        <time>2016-04-22T14:33:37Z</time>
      </trkpt>
      <trkpt lat="43.21417" lon="5.5176">
        <ele>126.07</ele>
        <time>2016-04-22T14:33:38Z</time>
      </trkpt>
      <trkpt lat="43.21413" lon="5.5176">
        <ele>126.07</ele>
        <time>2016-04-22T14:33:51Z</time>
      </trkpt>
      <trkpt lat="43.21411" lon="5.51759">
        <ele>125.59</ele>
        <time>2016-04-22T14:34:04Z</time>
      </trkpt>
      <trkpt lat="43.21399" lon="5.51756">
        <ele>123.67</ele>
        <time>2016-04-22T14:34:19Z</time>
      </trkpt>
      <trkpt lat="43.21398" lon="5.51756">
        <ele>126.07</ele>
        <time>2016-04-22T14:34:46Z</time>
      </trkpt>
      <trkpt lat="43.21388" lon="5.5176">
        <ele>125.59</ele>
        <time>2016-04-22T14:34:59Z</time>
      </trkpt>
      <trkpt lat="43.21386" lon="5.51762">
        <ele>125.59</ele>
        <time>2016-04-22T14:35:00Z</time>
      </trkpt>
      <trkpt lat="43.21383" lon="5.51768">
        <ele>124.15</ele>
        <time>2016-04-22T14:35:07Z</time>
      </trkpt>
      <trkpt lat="43.21382" lon="5.51769">
        <ele>123.67</ele>
        <time>2016-04-22T14:35:08Z</time>
      </trkpt>
      <trkpt lat="43.2138" lon="5.5177">
        <ele>123.67</ele>
        <time>2016-04-22T14:35:09Z</time>
      </trkpt>
      <trkpt lat="43.21376" lon="5.51778">
        <ele>121.74</ele>
        <time>2016-04-22T14:35:19Z</time>
      </trkpt>
      <trkpt lat="43.21365" lon="5.51789">
        <ele>120.78</ele>
        <time>2016-04-22T14:35:30Z</time>
      </trkpt>
      <trkpt lat="43.21361" lon="5.51795">
        <ele>120.78</ele>
        <time>2016-04-22T14:35:39Z</time>
      </trkpt>
      <trkpt lat="43.21356" lon="5.51809">
        <ele>120.3</ele>
        <time>2016-04-22T14:35:48Z</time>
      </trkpt>
      <trkpt lat="43.21358" lon="5.51816">
        <ele>120.3</ele>
        <time>2016-04-22T14:35:54Z</time>
      </trkpt>
      <trkpt lat="43.21357" lon="5.51818">
        <ele>120.3</ele>
        <time>2016-04-22T14:35:55Z</time>
      </trkpt>
      <trkpt lat="43.21357" lon="5.5182">
        <ele>119.82</ele>
        <time>2016-04-22T14:35:56Z</time>
      </trkpt>
      <trkpt lat="43.21356" lon="5.51821">
        <ele>119.82</ele>
        <time>2016-04-22T14:35:57Z</time>
      </trkpt>
      <trkpt lat="43.21356" lon="5.51825">
        <ele>119.34</ele>
        <time>2016-04-22T14:36:00Z</time>
      </trkpt>
      <trkpt lat="43.21357" lon="5.51829">
        <ele>119.34</ele>
        <time>2016-04-22T14:36:03Z</time>
      </trkpt>
      <trkpt lat="43.21356" lon="5.51832">
        <ele>118.86</ele>
        <time>2016-04-22T14:36:05Z</time>
      </trkpt>
      <trkpt lat="43.21355" lon="5.51834">
        <ele>118.86</ele>
        <time>2016-04-22T14:36:06Z</time>
      </trkpt>
      <trkpt lat="43.21352" lon="5.51854">
        <ele>118.38</ele>
        <time>2016-04-22T14:36:20Z</time>
      </trkpt>
      <trkpt lat="43.21351" lon="5.5187">
        <ele>116.46</ele>
        <time>2016-04-22T14:36:32Z</time>
      </trkpt>
      <trkpt lat="43.2135" lon="5.51882">
        <ele>114.05</ele>
        <time>2016-04-22T14:36:41Z</time>
      </trkpt>
      <trkpt lat="43.21348" lon="5.51889">
        <ele>113.09</ele>
        <time>2016-04-22T14:36:47Z</time>
      </trkpt>
      <trkpt lat="43.21347" lon="5.5189">
        <ele>113.09</ele>
        <time>2016-04-22T14:36:48Z</time>
      </trkpt>
      <trkpt lat="43.21347" lon="5.51891">
        <ele>114.05</ele>
        <time>2016-04-22T14:36:59Z</time>
      </trkpt>
      <trkpt lat="43.21347" lon="5.51892">
        <ele>115.01</ele>
        <time>2016-04-22T14:37:09Z</time>
      </trkpt>
      <trkpt lat="43.21348" lon="5.51892">
        <ele>115.98</ele>
        <time>2016-04-22T14:37:30Z</time>
      </trkpt>
      <trkpt lat="43.21344" lon="5.51904">
        <ele>115.01</ele>
        <time>2016-04-22T14:37:44Z</time>
      </trkpt>
      <trkpt lat="43.21345" lon="5.51904">
        <ele>115.01</ele>
        <time>2016-04-22T14:37:54Z</time>
      </trkpt>
      <trkpt lat="43.21343" lon="5.51906">
        <ele>115.01</ele>
        <time>2016-04-22T14:37:59Z</time>
      </trkpt>
      <trkpt lat="43.21343" lon="5.51907">
        <ele>115.01</ele>
        <time>2016-04-22T14:38:00Z</time>
      </trkpt>
      <trkpt lat="43.21337" lon="5.51925">
        <ele>113.57</ele>
        <time>2016-04-22T14:38:15Z</time>
      </trkpt>
      <trkpt lat="43.21336" lon="5.51943">
        <ele>109.25</ele>
        <time>2016-04-22T14:38:28Z</time>
      </trkpt>
      <trkpt lat="43.21331" lon="5.51959">
        <ele>105.4</ele>
        <time>2016-04-22T14:38:42Z</time>
      </trkpt>
      <trkpt lat="43.2133" lon="5.5196">
        <ele>103</ele>
        <time>2016-04-22T14:38:54Z</time>
      </trkpt>
      <trkpt lat="43.21328" lon="5.5196">
        <ele>99.15</ele>
        <time>2016-04-22T14:39:20Z</time>
      </trkpt>
      <trkpt lat="43.21322" lon="5.51961">
        <ele>101.08</ele>
        <time>2016-04-22T14:39:41Z</time>
      </trkpt>
      <trkpt lat="43.21319" lon="5.51959">
        <ele>98.19</ele>
        <time>2016-04-22T14:40:11Z</time>
      </trkpt>
      <trkpt lat="43.2133" lon="5.51965">
        <ele>105.4</ele>
        <time>2016-04-22T14:40:37Z</time>
      </trkpt>
      <trkpt lat="43.21331" lon="5.5197">
        <ele>104.92</ele>
        <time>2016-04-22T14:40:41Z</time>
      </trkpt>
      <trkpt lat="43.21333" lon="5.51986">
        <ele>103.48</ele>
        <time>2016-04-22T14:40:51Z</time>
      </trkpt>
      <trkpt lat="43.21332" lon="5.51993">
        <ele>103.48</ele>
        <time>2016-04-22T14:41:03Z</time>
      </trkpt>
      <trkpt lat="43.21333" lon="5.51993">
        <ele>104.44</ele>
        <time>2016-04-22T14:41:30Z</time>
      </trkpt>
      <trkpt lat="43.21335" lon="5.51999">
        <ele>104.44</ele>
        <time>2016-04-22T14:41:51Z</time>
      </trkpt>
      <trkpt lat="43.21337" lon="5.52004">
        <ele>104.92</ele>
        <time>2016-04-22T14:41:57Z</time>
      </trkpt>
      <trkpt lat="43.2134" lon="5.52018">
        <ele>106.36</ele>
        <time>2016-04-22T14:42:07Z</time>
      </trkpt>
      <trkpt lat="43.21341" lon="5.52019">
        <ele>106.36</ele>
        <time>2016-04-22T14:42:08Z</time>
      </trkpt>
      <trkpt lat="43.21341" lon="5.52021">
        <ele>105.88</ele>
        <time>2016-04-22T14:42:09Z</time>
      </trkpt>
      <trkpt lat="43.21341" lon="5.52023">
        <ele>105.88</ele>
        <time>2016-04-22T14:42:10Z</time>
      </trkpt>
      <trkpt lat="43.21341" lon="5.52025">
        <ele>105.88</ele>
        <time>2016-04-22T14:42:11Z</time>
      </trkpt>
      <trkpt lat="43.21341" lon="5.52027">
        <ele>105.88</ele>
        <time>2016-04-22T14:42:12Z</time>
      </trkpt>
      <trkpt lat="43.21341" lon="5.52029">
        <ele>105.88</ele>
        <time>2016-04-22T14:42:13Z</time>
      </trkpt>
      <trkpt lat="43.21341" lon="5.52036">
        <ele>104.92</ele>
        <time>2016-04-22T14:42:19Z</time>
      </trkpt>
      <trkpt lat="43.2134" lon="5.52038">
        <ele>104.92</ele>
        <time>2016-04-22T14:42:20Z</time>
      </trkpt>
      <trkpt lat="43.2134" lon="5.5204">
        <ele>104.92</ele>
        <time>2016-04-22T14:42:21Z</time>
      </trkpt>
      <trkpt lat="43.21339" lon="5.52042">
        <ele>104.44</ele>
        <time>2016-04-22T14:42:22Z</time>
      </trkpt>
      <trkpt lat="43.21336" lon="5.52055">
        <ele>103</ele>
        <time>2016-04-22T14:42:32Z</time>
      </trkpt>
      <trkpt lat="43.21335" lon="5.52066">
        <ele>101.56</ele>
        <time>2016-04-22T14:42:42Z</time>
      </trkpt>
      <trkpt lat="43.21331" lon="5.5208">
        <ele>101.08</ele>
        <time>2016-04-22T14:42:52Z</time>
      </trkpt>
      <trkpt lat="43.21332" lon="5.52082">
        <ele>101.08</ele>
        <time>2016-04-22T14:42:54Z</time>
      </trkpt>
      <trkpt lat="43.21332" lon="5.52083">
        <ele>101.08</ele>
        <time>2016-04-22T14:42:55Z</time>
      </trkpt>
      <trkpt lat="43.21332" lon="5.52085">
        <ele>100.6</ele>
        <time>2016-04-22T14:42:56Z</time>
      </trkpt>
      <trkpt lat="43.21331" lon="5.52088">
        <ele>100.6</ele>
        <time>2016-04-22T14:42:57Z</time>
      </trkpt>
      <trkpt lat="43.21331" lon="5.5209">
        <ele>100.6</ele>
        <time>2016-04-22T14:42:58Z</time>
      </trkpt>
      <trkpt lat="43.2133" lon="5.52092">
        <ele>100.6</ele>
        <time>2016-04-22T14:42:59Z</time>
      </trkpt>
      <trkpt lat="43.21329" lon="5.52094">
        <ele>100.6</ele>
        <time>2016-04-22T14:43:00Z</time>
      </trkpt>
      <trkpt lat="43.2133" lon="5.52097">
        <ele>98.67</ele>
        <time>2016-04-22T14:43:14Z</time>
      </trkpt>
      <trkpt lat="43.2133" lon="5.52099">
        <ele>98.67</ele>
        <time>2016-04-22T14:43:15Z</time>
      </trkpt>
      <trkpt lat="43.2133" lon="5.52101">
        <ele>98.67</ele>
        <time>2016-04-22T14:43:16Z</time>
      </trkpt>
      <trkpt lat="43.21331" lon="5.52103">
        <ele>98.67</ele>
        <time>2016-04-22T14:43:17Z</time>
      </trkpt>
      <trkpt lat="43.21334" lon="5.52108">
        <ele>97.71</ele>
        <time>2016-04-22T14:43:26Z</time>
      </trkpt>
      <trkpt lat="43.21335" lon="5.52117">
        <ele>95.79</ele>
        <time>2016-04-22T14:43:38Z</time>
      </trkpt>
      <trkpt lat="43.21335" lon="5.52126">
        <ele>94.83</ele>
        <time>2016-04-22T14:43:46Z</time>
      </trkpt>
      <trkpt lat="43.21336" lon="5.52131">
        <ele>93.87</ele>
        <time>2016-04-22T14:43:58Z</time>
      </trkpt>
      <trkpt lat="43.21336" lon="5.52133">
        <ele>93.39</ele>
        <time>2016-04-22T14:44:03Z</time>
      </trkpt>
      <trkpt lat="43.21337" lon="5.52143">
        <ele>91.94</ele>
        <time>2016-04-22T14:44:12Z</time>
      </trkpt>
      <trkpt lat="43.21335" lon="5.52157">
        <ele>91.46</ele>
        <time>2016-04-22T14:44:23Z</time>
      </trkpt>
      <trkpt lat="43.21332" lon="5.52165">
        <ele>91.46</ele>
        <time>2016-04-22T14:44:27Z</time>
      </trkpt>
      <trkpt lat="43.2133" lon="5.52167">
        <ele>91.46</ele>
        <time>2016-04-22T14:44:28Z</time>
      </trkpt>
      <trkpt lat="43.21329" lon="5.52169">
        <ele>91.46</ele>
        <time>2016-04-22T14:44:29Z</time>
      </trkpt>
      <trkpt lat="43.21329" lon="5.5217">
        <ele>90.98</ele>
        <time>2016-04-22T14:44:30Z</time>
      </trkpt>
      <trkpt lat="43.21333" lon="5.5218">
        <ele>88.58</ele>
        <time>2016-04-22T14:44:41Z</time>
      </trkpt>
      <trkpt lat="43.21333" lon="5.52183">
        <ele>87.62</ele>
        <time>2016-04-22T14:44:43Z</time>
      </trkpt>
      <trkpt lat="43.21333" lon="5.52185">
        <ele>87.14</ele>
        <time>2016-04-22T14:44:44Z</time>
      </trkpt>
      <trkpt lat="43.21333" lon="5.52187">
        <ele>86.66</ele>
        <time>2016-04-22T14:44:45Z</time>
      </trkpt>
      <trkpt lat="43.21334" lon="5.52189">
        <ele>86.18</ele>
        <time>2016-04-22T14:44:46Z</time>
      </trkpt>
      <trkpt lat="43.21335" lon="5.5219">
        <ele>86.18</ele>
        <time>2016-04-22T14:44:47Z</time>
      </trkpt>
      <trkpt lat="43.21344" lon="5.52196">
        <ele>83.29</ele>
        <time>2016-04-22T14:44:58Z</time>
      </trkpt>
      <trkpt lat="43.21346" lon="5.52199">
        <ele>82.81</ele>
        <time>2016-04-22T14:45:02Z</time>
      </trkpt>
      <trkpt lat="43.21352" lon="5.52209">
        <ele>80.41</ele>
        <time>2016-04-22T14:45:12Z</time>
      </trkpt>
      <trkpt lat="43.21352" lon="5.52211">
        <ele>80.41</ele>
        <time>2016-04-22T14:45:13Z</time>
      </trkpt>
      <trkpt lat="43.21353" lon="5.52213">
        <ele>80.41</ele>
        <time>2016-04-22T14:45:14Z</time>
      </trkpt>
      <trkpt lat="43.21354" lon="5.52214">
        <ele>80.41</ele>
        <time>2016-04-22T14:45:15Z</time>
      </trkpt>
      <trkpt lat="43.21357" lon="5.52215">
        <ele>78.48</ele>
        <time>2016-04-22T14:45:24Z</time>
      </trkpt>
      <trkpt lat="43.21357" lon="5.52217">
        <ele>78.48</ele>
        <time>2016-04-22T14:45:26Z</time>
      </trkpt>
      <trkpt lat="43.21359" lon="5.52219">
        <ele>78.97</ele>
        <time>2016-04-22T14:45:28Z</time>
      </trkpt>
      <trkpt lat="43.21362" lon="5.52221">
        <ele>78.97</ele>
        <time>2016-04-22T14:45:32Z</time>
      </trkpt>
      <trkpt lat="43.21368" lon="5.52225">
        <ele>78</ele>
        <time>2016-04-22T14:45:38Z</time>
      </trkpt>
      <trkpt lat="43.21369" lon="5.52228">
        <ele>78</ele>
        <time>2016-04-22T14:45:39Z</time>
      </trkpt>
      <trkpt lat="43.2137" lon="5.52232">
        <ele>78</ele>
        <time>2016-04-22T14:45:41Z</time>
      </trkpt>
      <trkpt lat="43.21377" lon="5.52243">
        <ele>77.52</ele>
        <time>2016-04-22T14:45:51Z</time>
      </trkpt>
      <trkpt lat="43.21378" lon="5.52249">
        <ele>76.08</ele>
        <time>2016-04-22T14:46:03Z</time>
      </trkpt>
      <trkpt lat="43.21377" lon="5.52251">
        <ele>76.08</ele>
        <time>2016-04-22T14:46:04Z</time>
      </trkpt>
      <trkpt lat="43.21376" lon="5.52253">
        <ele>76.08</ele>
        <time>2016-04-22T14:46:05Z</time>
      </trkpt>
      <trkpt lat="43.21375" lon="5.52254">
        <ele>76.08</ele>
        <time>2016-04-22T14:46:06Z</time>
      </trkpt>
      <trkpt lat="43.21375" lon="5.52254">
        <ele>76.08</ele>
        <time>2016-04-22T14:46:18Z</time>
      </trkpt>
      <trkpt lat="43.21373" lon="5.52256">
        <ele>75.6</ele>
        <time>2016-04-22T14:46:36Z</time>
      </trkpt>
      <trkpt lat="43.21373" lon="5.52255">
        <ele>76.56</ele>
        <time>2016-04-22T14:47:09Z</time>
      </trkpt>
      <trkpt lat="43.21372" lon="5.52254">
        <ele>77.04</ele>
        <time>2016-04-22T14:47:33Z</time>
      </trkpt>
      <trkpt lat="43.21373" lon="5.52255">
        <ele>79.93</ele>
        <time>2016-04-22T14:48:03Z</time>
      </trkpt>
      <trkpt lat="43.21374" lon="5.52255">
        <ele>78.97</ele>
        <time>2016-04-22T14:48:18Z</time>
      </trkpt>
      <trkpt lat="43.21372" lon="5.52253">
        <ele>75.6</ele>
        <time>2016-04-22T14:48:44Z</time>
      </trkpt>
      <trkpt lat="43.21373" lon="5.52252">
        <ele>78.48</ele>
        <time>2016-04-22T14:49:07Z</time>
      </trkpt>
      <trkpt lat="43.21373" lon="5.52253">
        <ele>78.48</ele>
        <time>2016-04-22T14:49:37Z</time>
      </trkpt>
      <trkpt lat="43.21373" lon="5.52254">
        <ele>78</ele>
        <time>2016-04-22T14:50:01Z</time>
      </trkpt>
      <trkpt lat="43.21375" lon="5.52254">
        <ele>77.04</ele>
        <time>2016-04-22T14:50:23Z</time>
      </trkpt>
      <trkpt lat="43.21376" lon="5.52253">
        <ele>76.08</ele>
        <time>2016-04-22T14:50:35Z</time>
      </trkpt>
      <trkpt lat="43.21374" lon="5.52248">
        <ele>72.72</ele>
        <time>2016-04-22T14:50:52Z</time>
      </trkpt>
      <trkpt lat="43.2137" lon="5.52245">
        <ele>72.24</ele>
        <time>2016-04-22T14:51:04Z</time>
      </trkpt>
      <trkpt lat="43.21369" lon="5.52245">
        <ele>72.24</ele>
        <time>2016-04-22T14:51:05Z</time>
      </trkpt>
      <trkpt lat="43.21366" lon="5.52247">
        <ele>72.24</ele>
        <time>2016-04-22T14:51:09Z</time>
      </trkpt>
      <trkpt lat="43.2136" lon="5.52246">
        <ele>72.72</ele>
        <time>2016-04-22T14:51:23Z</time>
      </trkpt>
      <trkpt lat="43.21352" lon="5.52241">
        <ele>73.2</ele>
        <time>2016-04-22T14:51:42Z</time>
      </trkpt>
      <trkpt lat="43.21348" lon="5.52238">
        <ele>72.24</ele>
        <time>2016-04-22T14:51:53Z</time>
      </trkpt>
      <trkpt lat="43.21347" lon="5.52236">
        <ele>71.76</ele>
        <time>2016-04-22T14:51:54Z</time>
      </trkpt>
      <trkpt lat="43.21346" lon="5.52235">
        <ele>71.76</ele>
        <time>2016-04-22T14:51:55Z</time>
      </trkpt>
      <trkpt lat="43.21344" lon="5.52234">
        <ele>70.79</ele>
        <time>2016-04-22T14:51:57Z</time>
      </trkpt>
      <trkpt lat="43.21341" lon="5.52232">
        <ele>69.83</ele>
        <time>2016-04-22T14:52:00Z</time>
      </trkpt>
      <trkpt lat="43.21341" lon="5.5223">
        <ele>69.83</ele>
        <time>2016-04-22T14:52:01Z</time>
      </trkpt>
      <trkpt lat="43.21335" lon="5.52221">
        <ele>68.39</ele>
        <time>2016-04-22T14:52:12Z</time>
      </trkpt>
      <trkpt lat="43.21324" lon="5.52202">
        <ele>66.95</ele>
        <time>2016-04-22T14:52:24Z</time>
      </trkpt>
      <trkpt lat="43.2132" lon="5.52197">
        <ele>65.51</ele>
        <time>2016-04-22T14:52:27Z</time>
      </trkpt>
      <trkpt lat="43.21319" lon="5.52195">
        <ele>65.03</ele>
        <time>2016-04-22T14:52:28Z</time>
      </trkpt>
      <trkpt lat="43.21318" lon="5.52192">
        <ele>64.55</ele>
        <time>2016-04-22T14:52:29Z</time>
      </trkpt>
      <trkpt lat="43.21318" lon="5.5219">
        <ele>64.55</ele>
        <time>2016-04-22T14:52:30Z</time>
      </trkpt>
      <trkpt lat="43.21317" lon="5.52188">
        <ele>64.07</ele>
        <time>2016-04-22T14:52:31Z</time>
      </trkpt>
      <trkpt lat="43.21316" lon="5.52187">
        <ele>63.58</ele>
        <time>2016-04-22T14:52:32Z</time>
      </trkpt>
      <trkpt lat="43.21315" lon="5.52185">
        <ele>63.1</ele>
        <time>2016-04-22T14:52:33Z</time>
      </trkpt>
      <trkpt lat="43.21315" lon="5.52184">
        <ele>63.1</ele>
        <time>2016-04-22T14:52:34Z</time>
      </trkpt>
      <trkpt lat="43.21304" lon="5.52192">
        <ele>60.7</ele>
        <time>2016-04-22T14:52:44Z</time>
      </trkpt>
      <trkpt lat="43.21309" lon="5.52202">
        <ele>58.3</ele>
        <time>2016-04-22T14:52:56Z</time>
      </trkpt>
      <trkpt lat="43.2131" lon="5.52202">
        <ele>58.3</ele>
        <time>2016-04-22T14:52:57Z</time>
      </trkpt>
      <trkpt lat="43.21311" lon="5.52204">
        <ele>57.82</ele>
        <time>2016-04-22T14:52:58Z</time>
      </trkpt>
      <trkpt lat="43.21317" lon="5.52213">
        <ele>56.86</ele>
        <time>2016-04-22T14:53:08Z</time>
      </trkpt>
      <trkpt lat="43.21323" lon="5.52221">
        <ele>53.97</ele>
        <time>2016-04-22T14:53:22Z</time>
      </trkpt>
      <trkpt lat="43.21327" lon="5.52233">
        <ele>52.05</ele>
        <time>2016-04-22T14:53:37Z</time>
      </trkpt>
      <trkpt lat="43.21329" lon="5.52239">
        <ele>51.57</ele>
        <time>2016-04-22T14:53:46Z</time>
      </trkpt>
      <trkpt lat="43.21329" lon="5.52241">
        <ele>51.57</ele>
        <time>2016-04-22T14:53:47Z</time>
      </trkpt>
      <trkpt lat="43.2133" lon="5.52246">
        <ele>52.05</ele>
        <time>2016-04-22T14:53:51Z</time>
      </trkpt>
      <trkpt lat="43.21335" lon="5.52255">
        <ele>50.13</ele>
        <time>2016-04-22T14:54:02Z</time>
      </trkpt>
      <trkpt lat="43.21345" lon="5.52263">
        <ele>47.72</ele>
        <time>2016-04-22T14:54:15Z</time>
      </trkpt>
      <trkpt lat="43.21353" lon="5.5227">
        <ele>43.88</ele>
        <time>2016-04-22T14:54:29Z</time>
      </trkpt>
      <trkpt lat="43.21356" lon="5.52277">
        <ele>41.95</ele>
        <time>2016-04-22T14:54:38Z</time>
      </trkpt>
      <trkpt lat="43.21363" lon="5.52282">
        <ele>40.03</ele>
        <time>2016-04-22T14:54:47Z</time>
      </trkpt>
      <trkpt lat="43.21364" lon="5.52284">
        <ele>40.03</ele>
        <time>2016-04-22T14:54:48Z</time>
      </trkpt>
      <trkpt lat="43.21365" lon="5.52285">
        <ele>39.55</ele>
        <time>2016-04-22T14:54:49Z</time>
      </trkpt>
      <trkpt lat="43.21372" lon="5.52293">
        <ele>37.63</ele>
        <time>2016-04-22T14:55:00Z</time>
      </trkpt>
      <trkpt lat="43.21372" lon="5.52297">
        <ele>36.19</ele>
        <time>2016-04-22T14:55:06Z</time>
      </trkpt>
      <trkpt lat="43.21372" lon="5.52298">
        <ele>36.19</ele>
        <time>2016-04-22T14:55:07Z</time>
      </trkpt>
      <trkpt lat="43.21368" lon="5.523">
        <ele>35.23</ele>
        <time>2016-04-22T14:55:16Z</time>
      </trkpt>
      <trkpt lat="43.21364" lon="5.52299">
        <ele>34.26</ele>
        <time>2016-04-22T14:55:24Z</time>
      </trkpt>
      <trkpt lat="43.21363" lon="5.52298">
        <ele>34.26</ele>
        <time>2016-04-22T14:55:25Z</time>
      </trkpt>
      <trkpt lat="43.21354" lon="5.52294">
        <ele>34.74</ele>
        <time>2016-04-22T14:55:36Z</time>
      </trkpt>
      <trkpt lat="43.21346" lon="5.52291">
        <ele>33.78</ele>
        <time>2016-04-22T14:55:46Z</time>
      </trkpt>
      <trkpt lat="43.21337" lon="5.52286">
        <ele>31.38</ele>
        <time>2016-04-22T14:55:59Z</time>
      </trkpt>
      <trkpt lat="43.2133" lon="5.52281">
        <ele>31.86</ele>
        <time>2016-04-22T14:56:11Z</time>
      </trkpt>
      <trkpt lat="43.21323" lon="5.52279">
        <ele>28.98</ele>
        <time>2016-04-22T14:56:20Z</time>
      </trkpt>
      <trkpt lat="43.21315" lon="5.52275">
        <ele>27.05</ele>
        <time>2016-04-22T14:56:30Z</time>
      </trkpt>
      <trkpt lat="43.21312" lon="5.52273">
        <ele>26.09</ele>
        <time>2016-04-22T14:56:36Z</time>
      </trkpt>
      <trkpt lat="43.21305" lon="5.52266">
        <ele>24.65</ele>
        <time>2016-04-22T14:56:47Z</time>
      </trkpt>
      <trkpt lat="43.21304" lon="5.52264">
        <ele>24.17</ele>
        <time>2016-04-22T14:56:48Z</time>
      </trkpt>
      <trkpt lat="43.213" lon="5.52257">
        <ele>24.17</ele>
        <time>2016-04-22T14:56:58Z</time>
      </trkpt>
      <trkpt lat="43.21291" lon="5.52244">
        <ele>25.61</ele>
        <time>2016-04-22T14:57:12Z</time>
      </trkpt>
      <trkpt lat="43.2129" lon="5.52241">
        <ele>25.61</ele>
        <time>2016-04-22T14:57:14Z</time>
      </trkpt>
      <trkpt lat="43.21283" lon="5.52235">
        <ele>24.17</ele>
        <time>2016-04-22T14:57:24Z</time>
      </trkpt>
      <trkpt lat="43.21273" lon="5.52228">
        <ele>21.77</ele>
        <time>2016-04-22T14:57:37Z</time>
      </trkpt>
      <trkpt lat="43.21269" lon="5.52223">
        <ele>21.77</ele>
        <time>2016-04-22T14:57:42Z</time>
      </trkpt>
      <trkpt lat="43.21262" lon="5.52211">
        <ele>17.92</ele>
        <time>2016-04-22T14:57:53Z</time>
      </trkpt>
      <trkpt lat="43.21249" lon="5.52206">
        <ele>15.04</ele>
        <time>2016-04-22T14:58:06Z</time>
      </trkpt>
      <trkpt lat="43.21237" lon="5.522">
        <ele>13.6</ele>
        <time>2016-04-22T14:58:20Z</time>
      </trkpt>
      <trkpt lat="43.21235" lon="5.522">
        <ele>13.6</ele>
        <time>2016-04-22T14:58:22Z</time>
      </trkpt>
      <trkpt lat="43.21223" lon="5.52207">
        <ele>12.15</ele>
        <time>2016-04-22T14:58:35Z</time>
      </trkpt>
      <trkpt lat="43.21218" lon="5.52206">
        <ele>12.15</ele>
        <time>2016-04-22T14:58:47Z</time>
      </trkpt>
      <trkpt lat="43.21219" lon="5.52203">
        <ele>14.08</ele>
        <time>2016-04-22T14:59:00Z</time>
      </trkpt>
      <trkpt lat="43.21221" lon="5.52203">
        <ele>11.67</ele>
        <time>2016-04-22T14:59:15Z</time>
      </trkpt>
      <trkpt lat="43.21225" lon="5.52202">
        <ele>10.23</ele>
        <time>2016-04-22T14:59:35Z</time>
      </trkpt>
      <trkpt lat="43.21222" lon="5.52206">
        <ele>11.19</ele>
        <time>2016-04-22T14:59:57Z</time>
      </trkpt>
      <trkpt lat="43.21221" lon="5.52205">
        <ele>12.15</ele>
        <time>2016-04-22T15:00:27Z</time>
      </trkpt>
      <trkpt lat="43.21219" lon="5.52202">
        <ele>11.19</ele>
        <time>2016-04-22T15:00:49Z</time>
      </trkpt>
      <trkpt lat="43.21217" lon="5.52197">
        <ele>13.6</ele>
        <time>2016-04-22T15:01:17Z</time>
      </trkpt>
      <trkpt lat="43.21219" lon="5.5219">
        <ele>18.4</ele>
        <time>2016-04-22T15:01:33Z</time>
      </trkpt>
      <trkpt lat="43.21227" lon="5.52191">
        <ele>17.92</ele>
        <time>2016-04-22T15:01:52Z</time>
      </trkpt>
      <trkpt lat="43.21227" lon="5.52186">
        <ele>21.29</ele>
        <time>2016-04-22T15:02:25Z</time>
      </trkpt>
      <trkpt lat="43.21223" lon="5.5219">
        <ele>30.42</ele>
        <time>2016-04-22T15:03:02Z</time>
      </trkpt>
      <trkpt lat="43.21225" lon="5.52189">
        <ele>21.77</ele>
        <time>2016-04-22T15:03:31Z</time>
      </trkpt>
      <trkpt lat="43.21229" lon="5.52195">
        <ele>22.25</ele>
        <time>2016-04-22T15:03:47Z</time>
      </trkpt>
      <trkpt lat="43.21231" lon="5.52194">
        <ele>16.96</ele>
        <time>2016-04-22T15:04:13Z</time>
      </trkpt>
      <trkpt lat="43.21231" lon="5.52194">
        <ele>14.56</ele>
        <time>2016-04-22T15:04:30Z</time>
      </trkpt>
      <trkpt lat="43.21235" lon="5.52192">
        <ele>14.56</ele>
        <time>2016-04-22T15:04:52Z</time>
      </trkpt>
      <trkpt lat="43.21241" lon="5.5219">
        <ele>14.56</ele>
        <time>2016-04-22T15:05:12Z</time>
      </trkpt>
      <trkpt lat="43.21242" lon="5.52191">
        <ele>16</ele>
        <time>2016-04-22T15:05:48Z</time>
      </trkpt>
      <trkpt lat="43.21241" lon="5.52191">
        <ele>15.52</ele>
        <time>2016-04-22T15:06:09Z</time>
      </trkpt>
      <trkpt lat="43.21234" lon="5.52195">
        <ele>15.52</ele>
        <time>2016-04-22T15:06:30Z</time>
      </trkpt>
      <trkpt lat="43.21229" lon="5.52197">
        <ele>16</ele>
        <time>2016-04-22T15:06:55Z</time>
      </trkpt>
      <trkpt lat="43.21227" lon="5.52196">
        <ele>15.52</ele>
        <time>2016-04-22T15:07:19Z</time>
      </trkpt>
      <trkpt lat="43.21227" lon="5.52202">
        <ele>14.08</ele>
        <time>2016-04-22T15:07:49Z</time>
      </trkpt>
      <trkpt lat="43.21227" lon="5.522">
        <ele>14.08</ele>
        <time>2016-04-22T15:08:13Z</time>
      </trkpt>
      <trkpt lat="43.21226" lon="5.52195">
        <ele>13.12</ele>
        <time>2016-04-22T15:08:45Z</time>
      </trkpt>
      <trkpt lat="43.21224" lon="5.52195">
        <ele>15.52</ele>
        <time>2016-04-22T15:09:15Z</time>
      </trkpt>
      <trkpt lat="43.21223" lon="5.52196">
        <ele>16</ele>
        <time>2016-04-22T15:09:37Z</time>
      </trkpt>
      <trkpt lat="43.21223" lon="5.52198">
        <ele>14.56</ele>
        <time>2016-04-22T15:10:01Z</time>
      </trkpt>
      <trkpt lat="43.21223" lon="5.52198">
        <ele>15.04</ele>
        <time>2016-04-22T15:10:02Z</time>
      </trkpt>
      <trkpt lat="43.21226" lon="5.522">
        <ele>16.48</ele>
        <time>2016-04-22T15:10:17Z</time>
      </trkpt>
      <trkpt lat="43.21225" lon="5.52196">
        <ele>22.73</ele>
        <time>2016-04-22T15:10:49Z</time>
      </trkpt>
      <trkpt lat="43.21226" lon="5.52193">
        <ele>23.21</ele>
        <time>2016-04-22T15:11:18Z</time>
      </trkpt>
      <trkpt lat="43.21224" lon="5.52193">
        <ele>29.94</ele>
        <time>2016-04-22T15:11:41Z</time>
      </trkpt>
      <trkpt lat="43.21228" lon="5.52195">
        <ele>26.09</ele>
        <time>2016-04-22T15:12:13Z</time>
      </trkpt>
      <trkpt lat="43.21227" lon="5.52193">
        <ele>36.67</ele>
        <time>2016-04-22T15:12:48Z</time>
      </trkpt>
      <trkpt lat="43.21227" lon="5.52191">
        <ele>31.86</ele>
        <time>2016-04-22T15:13:13Z</time>
      </trkpt>
      <trkpt lat="43.21228" lon="5.52195">
        <ele>26.57</ele>
        <time>2016-04-22T15:13:39Z</time>
      </trkpt>
      <trkpt lat="43.21217" lon="5.52204">
        <ele>18.88</ele>
        <time>2016-04-22T15:13:53Z</time>
      </trkpt>
      <trkpt lat="43.21204" lon="5.52213">
        <ele>16</ele>
        <time>2016-04-22T15:14:10Z</time>
      </trkpt>
      <trkpt lat="43.21197" lon="5.52216">
        <ele>13.12</ele>
        <time>2016-04-22T15:14:19Z</time>
      </trkpt>
      <trkpt lat="43.21179" lon="5.52214">
        <ele>9.27</ele>
        <time>2016-04-22T15:14:35Z</time>
      </trkpt>
      <trkpt lat="43.21167" lon="5.52208">
        <ele>6.39</ele>
        <time>2016-04-22T15:14:50Z</time>
      </trkpt>
      <trkpt lat="43.21163" lon="5.52205">
        <ele>6.39</ele>
        <time>2016-04-22T15:14:54Z</time>
      </trkpt>
      <trkpt lat="43.21146" lon="5.5221">
        <ele>10.71</ele>
        <time>2016-04-22T15:15:09Z</time>
      </trkpt>
      <trkpt lat="43.21145" lon="5.52213">
        <ele>11.67</ele>
        <time>2016-04-22T15:15:12Z</time>
      </trkpt>
      <trkpt lat="43.21144" lon="5.52238">
        <ele>21.77</ele>
        <time>2016-04-22T15:15:30Z</time>
      </trkpt>
      <trkpt lat="43.21144" lon="5.5225">
        <ele>24.17</ele>
        <time>2016-04-22T15:15:40Z</time>
      </trkpt>
      <trkpt lat="43.21143" lon="5.52252">
        <ele>24.65</ele>
        <time>2016-04-22T15:15:42Z</time>
      </trkpt>
      <trkpt lat="43.21135" lon="5.52259">
        <ele>25.61</ele>
        <time>2016-04-22T15:15:55Z</time>
      </trkpt>
      <trkpt lat="43.2113" lon="5.52255">
        <ele>25.13</ele>
        <time>2016-04-22T15:16:07Z</time>
      </trkpt>
      <trkpt lat="43.21127" lon="5.52264">
        <ele>26.57</ele>
        <time>2016-04-22T15:16:20Z</time>
      </trkpt>
      <trkpt lat="43.21121" lon="5.52271">
        <ele>28.98</ele>
        <time>2016-04-22T15:16:34Z</time>
      </trkpt>
      <trkpt lat="43.21114" lon="5.52273">
        <ele>32.34</ele>
        <time>2016-04-22T15:16:50Z</time>
      </trkpt>
      <trkpt lat="43.21107" lon="5.52277">
        <ele>36.19</ele>
        <time>2016-04-22T15:17:03Z</time>
      </trkpt>
      <trkpt lat="43.21103" lon="5.52284">
        <ele>37.15</ele>
        <time>2016-04-22T15:17:15Z</time>
      </trkpt>
      <trkpt lat="43.21098" lon="5.52294">
        <ele>37.15</ele>
        <time>2016-04-22T15:17:29Z</time>
      </trkpt>
      <trkpt lat="43.21095" lon="5.52305">
        <ele>39.07</ele>
        <time>2016-04-22T15:17:44Z</time>
      </trkpt>
      <trkpt lat="43.2109" lon="5.52312">
        <ele>41.47</ele>
        <time>2016-04-22T15:17:54Z</time>
      </trkpt>
      <trkpt lat="43.21083" lon="5.52307">
        <ele>42.92</ele>
        <time>2016-04-22T15:18:05Z</time>
      </trkpt>
      <trkpt lat="43.21081" lon="5.52303">
        <ele>43.4</ele>
        <time>2016-04-22T15:18:11Z</time>
      </trkpt>
      <trkpt lat="43.21077" lon="5.52292">
        <ele>45.8</ele>
        <time>2016-04-22T15:18:22Z</time>
      </trkpt>
      <trkpt lat="43.21073" lon="5.5229">
        <ele>46.76</ele>
        <time>2016-04-22T15:18:28Z</time>
      </trkpt>
      <trkpt lat="43.21066" lon="5.52293">
        <ele>47.24</ele>
        <time>2016-04-22T15:18:35Z</time>
      </trkpt>
      <trkpt lat="43.21053" lon="5.52291">
        <ele>47.24</ele>
        <time>2016-04-22T15:18:48Z</time>
      </trkpt>
      <trkpt lat="43.21039" lon="5.52283">
        <ele>47.24</ele>
        <time>2016-04-22T15:19:02Z</time>
      </trkpt>
      <trkpt lat="43.21037" lon="5.52281">
        <ele>47.24</ele>
        <time>2016-04-22T15:19:04Z</time>
      </trkpt>
      <trkpt lat="43.21025" lon="5.52276">
        <ele>43.4</ele>
        <time>2016-04-22T15:19:18Z</time>
      </trkpt>
      <trkpt lat="43.21024" lon="5.52277">
        <ele>43.4</ele>
        <time>2016-04-22T15:19:20Z</time>
      </trkpt>
      <trkpt lat="43.21019" lon="5.52262">
        <ele>44.84</ele>
        <time>2016-04-22T15:19:34Z</time>
      </trkpt>
      <trkpt lat="43.21012" lon="5.52249">
        <ele>45.32</ele>
        <time>2016-04-22T15:19:45Z</time>
      </trkpt>
      <trkpt lat="43.21006" lon="5.52237">
        <ele>45.32</ele>
        <time>2016-04-22T15:19:57Z</time>
      </trkpt>
      <trkpt lat="43.21001" lon="5.52228">
        <ele>46.28</ele>
        <time>2016-04-22T15:20:06Z</time>
      </trkpt>
      <trkpt lat="43.2099" lon="5.52214">
        <ele>46.76</ele>
        <time>2016-04-22T15:20:21Z</time>
      </trkpt>
      <trkpt lat="43.20983" lon="5.52203">
        <ele>46.76</ele>
        <time>2016-04-22T15:20:31Z</time>
      </trkpt>
      <trkpt lat="43.20983" lon="5.52203">
        <ele>46.28</ele>
        <time>2016-04-22T15:20:32Z</time>
      </trkpt>
      <trkpt lat="43.20975" lon="5.5219">
        <ele>47.72</ele>
        <time>2016-04-22T15:20:46Z</time>
      </trkpt>
      <trkpt lat="43.20969" lon="5.52177">
        <ele>48.68</ele>
        <time>2016-04-22T15:20:59Z</time>
      </trkpt>
      <trkpt lat="43.20962" lon="5.52166">
        <ele>50.13</ele>
        <time>2016-04-22T15:21:10Z</time>
      </trkpt>
      <trkpt lat="43.20955" lon="5.52154">
        <ele>50.13</ele>
        <time>2016-04-22T15:21:22Z</time>
      </trkpt>
      <trkpt lat="43.20946" lon="5.52144">
        <ele>48.2</ele>
        <time>2016-04-22T15:21:35Z</time>
      </trkpt>
      <trkpt lat="43.20936" lon="5.52134">
        <ele>48.2</ele>
        <time>2016-04-22T15:21:48Z</time>
      </trkpt>
      <trkpt lat="43.20925" lon="5.52124">
        <ele>46.28</ele>
        <time>2016-04-22T15:22:01Z</time>
      </trkpt>
      <trkpt lat="43.20915" lon="5.52117">
        <ele>41.47</ele>
        <time>2016-04-22T15:22:13Z</time>
      </trkpt>
      <trkpt lat="43.20905" lon="5.52109">
        <ele>40.99</ele>
        <time>2016-04-22T15:22:24Z</time>
      </trkpt>
      <trkpt lat="43.20896" lon="5.52097">
        <ele>40.03</ele>
        <time>2016-04-22T15:22:35Z</time>
      </trkpt>
      <trkpt lat="43.20903" lon="5.52102">
        <ele>40.51</ele>
        <time>2016-04-22T15:22:47Z</time>
      </trkpt>
      <trkpt lat="43.20902" lon="5.52102">
        <ele>40.51</ele>
        <time>2016-04-22T15:22:50Z</time>
      </trkpt>
      <trkpt lat="43.20888" lon="5.5209">
        <ele>40.03</ele>
        <time>2016-04-22T15:23:02Z</time>
      </trkpt>
      <trkpt lat="43.20881" lon="5.52086">
        <ele>40.03</ele>
        <time>2016-04-22T15:23:13Z</time>
      </trkpt>
      <trkpt lat="43.20866" lon="5.52072">
        <ele>36.67</ele>
        <time>2016-04-22T15:23:27Z</time>
      </trkpt>
      <trkpt lat="43.20857" lon="5.52061">
        <ele>34.26</ele>
        <time>2016-04-22T15:23:37Z</time>
      </trkpt>
      <trkpt lat="43.20848" lon="5.52051">
        <ele>33.78</ele>
        <time>2016-04-22T15:23:48Z</time>
      </trkpt>
      <trkpt lat="43.20842" lon="5.5205">
        <ele>34.74</ele>
        <time>2016-04-22T15:23:58Z</time>
      </trkpt>
      <trkpt lat="43.20841" lon="5.52049">
        <ele>34.74</ele>
        <time>2016-04-22T15:23:59Z</time>
      </trkpt>
      <trkpt lat="43.20839" lon="5.52047">
        <ele>34.74</ele>
        <time>2016-04-22T15:24:00Z</time>
      </trkpt>
      <trkpt lat="43.20838" lon="5.52046">
        <ele>35.23</ele>
        <time>2016-04-22T15:24:01Z</time>
      </trkpt>
      <trkpt lat="43.20837" lon="5.52044">
        <ele>35.23</ele>
        <time>2016-04-22T15:24:02Z</time>
      </trkpt>
      <trkpt lat="43.20836" lon="5.52042">
        <ele>35.71</ele>
        <time>2016-04-22T15:24:03Z</time>
      </trkpt>
      <trkpt lat="43.20835" lon="5.5204">
        <ele>35.71</ele>
        <time>2016-04-22T15:24:04Z</time>
      </trkpt>
      <trkpt lat="43.20835" lon="5.52038">
        <ele>35.71</ele>
        <time>2016-04-22T15:24:05Z</time>
      </trkpt>
      <trkpt lat="43.20834" lon="5.52036">
        <ele>35.23</ele>
        <time>2016-04-22T15:24:06Z</time>
      </trkpt>
      <trkpt lat="43.20821" lon="5.5202">
        <ele>35.71</ele>
        <time>2016-04-22T15:24:18Z</time>
      </trkpt>
      <trkpt lat="43.2082" lon="5.52019">
        <ele>35.71</ele>
        <time>2016-04-22T15:24:20Z</time>
      </trkpt>
      <trkpt lat="43.20815" lon="5.52017">
        <ele>34.26</ele>
        <time>2016-04-22T15:24:28Z</time>
      </trkpt>
      <trkpt lat="43.20814" lon="5.52015">
        <ele>33.78</ele>
        <time>2016-04-22T15:24:29Z</time>
      </trkpt>
      <trkpt lat="43.20813" lon="5.52012">
        <ele>33.78</ele>
        <time>2016-04-22T15:24:30Z</time>
      </trkpt>
      <trkpt lat="43.208" lon="5.51997">
        <ele>29.46</ele>
        <time>2016-04-22T15:24:40Z</time>
      </trkpt>
      <trkpt lat="43.20791" lon="5.51988">
        <ele>28.98</ele>
        <time>2016-04-22T15:24:53Z</time>
      </trkpt>
      <trkpt lat="43.2079" lon="5.51987">
        <ele>28.5</ele>
        <time>2016-04-22T15:24:54Z</time>
      </trkpt>
      <trkpt lat="43.20789" lon="5.51986">
        <ele>28.02</ele>
        <time>2016-04-22T15:24:55Z</time>
      </trkpt>
      <trkpt lat="43.20779" lon="5.51971">
        <ele>23.69</ele>
        <time>2016-04-22T15:25:07Z</time>
      </trkpt>
      <trkpt lat="43.20771" lon="5.51964">
        <ele>24.65</ele>
        <time>2016-04-22T15:25:16Z</time>
      </trkpt>
      <trkpt lat="43.20764" lon="5.51956">
        <ele>23.69</ele>
        <time>2016-04-22T15:25:26Z</time>
      </trkpt>
      <trkpt lat="43.20748" lon="5.51942">
        <ele>21.77</ele>
        <time>2016-04-22T15:25:44Z</time>
      </trkpt>
      <trkpt lat="43.20731" lon="5.51926">
        <ele>23.21</ele>
        <time>2016-04-22T15:26:02Z</time>
      </trkpt>
      <trkpt lat="43.20727" lon="5.51923">
        <ele>24.17</ele>
        <time>2016-04-22T15:26:07Z</time>
      </trkpt>
    </trkseg>
  </trk>
</gpx>